<?xml version="1.0" encoding="UTF-8" standalone="no" ?>
<gpx xmlns="http://www.topografix.com/GPX/1/1" xmlns:xsi="http://www.w3.org/2001/XMLSchema-instance" xsi:schemaLocation="http://www.topografix.com/GPX/1/1 http://www.topografix.com/GPX/1/1/gpx.xsd" version="1.1" creator="VisuGPX - https://www.visugpx.com">
  <metadata>
    <name> Laroque Gagac</name>
    <desc><![CDATA[ Belle randonnée matinée douce]]></desc>
  </metadata>
  <trk>
    <name><![CDATA[2017-02-12 12:33:37]]></name>
    <trkseg>
      <trkpt lat="44.82476" lon="1.18455">
        <ele>69.35</ele>
        <time>2017-02-12T08:39:27Z</time>
      </trkpt>
      <trkpt lat="44.82475" lon="1.18453">
        <ele>69.35</ele>
        <time>2017-02-12T08:39:48Z</time>
      </trkpt>
      <trkpt lat="44.82473" lon="1.18453">
        <ele>69.35</ele>
        <time>2017-02-12T08:40:06Z</time>
      </trkpt>
      <trkpt lat="44.82472" lon="1.18454">
        <ele>69.35</ele>
        <time>2017-02-12T08:40:24Z</time>
      </trkpt>
      <trkpt lat="44.82473" lon="1.18456">
        <ele>69.35</ele>
        <time>2017-02-12T08:40:49Z</time>
      </trkpt>
      <trkpt lat="44.82471" lon="1.18457">
        <ele>68.39</ele>
        <time>2017-02-12T08:41:09Z</time>
      </trkpt>
      <trkpt lat="44.82471" lon="1.18454">
        <ele>68.39</ele>
        <time>2017-02-12T08:41:38Z</time>
      </trkpt>
      <trkpt lat="44.82469" lon="1.18454">
        <ele>68.39</ele>
        <time>2017-02-12T08:42:06Z</time>
      </trkpt>
      <trkpt lat="44.82469" lon="1.18455">
        <ele>67.91</ele>
        <time>2017-02-12T08:42:34Z</time>
      </trkpt>
      <trkpt lat="44.82471" lon="1.18455">
        <ele>67.91</ele>
        <time>2017-02-12T08:43:08Z</time>
      </trkpt>
      <trkpt lat="44.82463" lon="1.18449">
        <ele>67.91</ele>
        <time>2017-02-12T08:43:38Z</time>
      </trkpt>
      <trkpt lat="44.82454" lon="1.18433">
        <ele>67.91</ele>
        <time>2017-02-12T08:43:55Z</time>
      </trkpt>
      <trkpt lat="44.82454" lon="1.1843">
        <ele>67.91</ele>
        <time>2017-02-12T08:44:08Z</time>
      </trkpt>
      <trkpt lat="44.82455" lon="1.18434">
        <ele>67.43</ele>
        <time>2017-02-12T08:44:30Z</time>
      </trkpt>
      <trkpt lat="44.82456" lon="1.18433">
        <ele>68.39</ele>
        <time>2017-02-12T08:44:55Z</time>
      </trkpt>
      <trkpt lat="44.82456" lon="1.18434">
        <ele>68.39</ele>
        <time>2017-02-12T08:44:59Z</time>
      </trkpt>
      <trkpt lat="44.82456" lon="1.18443">
        <ele>68.39</ele>
        <time>2017-02-12T08:50:40Z</time>
      </trkpt>
      <trkpt lat="44.82453" lon="1.18438">
        <ele>66.95</ele>
        <time>2017-02-12T08:50:49Z</time>
      </trkpt>
      <trkpt lat="44.82454" lon="1.18439">
        <ele>67.91</ele>
        <time>2017-02-12T08:50:52Z</time>
      </trkpt>
      <trkpt lat="44.82457" lon="1.1844">
        <ele>67.91</ele>
        <time>2017-02-12T08:51:07Z</time>
      </trkpt>
      <trkpt lat="44.82457" lon="1.18439">
        <ele>68.87</ele>
        <time>2017-02-12T08:51:13Z</time>
      </trkpt>
      <trkpt lat="44.82458" lon="1.18432">
        <ele>67.43</ele>
        <time>2017-02-12T08:55:10Z</time>
      </trkpt>
      <trkpt lat="44.82465" lon="1.18435">
        <ele>67.43</ele>
        <time>2017-02-12T08:55:11Z</time>
      </trkpt>
      <trkpt lat="44.82488" lon="1.18432">
        <ele>65.99</ele>
        <time>2017-02-12T08:55:27Z</time>
      </trkpt>
      <trkpt lat="44.82503" lon="1.18439">
        <ele>65.99</ele>
        <time>2017-02-12T08:55:39Z</time>
      </trkpt>
      <trkpt lat="44.82504" lon="1.18443">
        <ele>67.43</ele>
        <time>2017-02-12T08:55:41Z</time>
      </trkpt>
      <trkpt lat="44.82504" lon="1.18457">
        <ele>65.03</ele>
        <time>2017-02-12T08:55:49Z</time>
      </trkpt>
      <trkpt lat="44.82504" lon="1.18461">
        <ele>66.95</ele>
        <time>2017-02-12T08:55:51Z</time>
      </trkpt>
      <trkpt lat="44.82507" lon="1.18492">
        <ele>66.95</ele>
        <time>2017-02-12T08:56:08Z</time>
      </trkpt>
      <trkpt lat="44.82507" lon="1.18499">
        <ele>65.51</ele>
        <time>2017-02-12T08:56:12Z</time>
      </trkpt>
      <trkpt lat="44.82506" lon="1.18503">
        <ele>66.95</ele>
        <time>2017-02-12T08:56:14Z</time>
      </trkpt>
      <trkpt lat="44.82506" lon="1.18511">
        <ele>65.51</ele>
        <time>2017-02-12T08:56:18Z</time>
      </trkpt>
      <trkpt lat="44.82508" lon="1.1854">
        <ele>66.47</ele>
        <time>2017-02-12T08:56:32Z</time>
      </trkpt>
      <trkpt lat="44.82513" lon="1.18542">
        <ele>67.43</ele>
        <time>2017-02-12T08:56:38Z</time>
      </trkpt>
      <trkpt lat="44.82516" lon="1.18539">
        <ele>67.91</ele>
        <time>2017-02-12T08:56:41Z</time>
      </trkpt>
      <trkpt lat="44.8252" lon="1.18531">
        <ele>69.83</ele>
        <time>2017-02-12T08:56:47Z</time>
      </trkpt>
      <trkpt lat="44.82528" lon="1.185">
        <ele>70.31</ele>
        <time>2017-02-12T08:57:05Z</time>
      </trkpt>
      <trkpt lat="44.82533" lon="1.18479">
        <ele>70.79</ele>
        <time>2017-02-12T08:57:22Z</time>
      </trkpt>
      <trkpt lat="44.82538" lon="1.1846">
        <ele>73.2</ele>
        <time>2017-02-12T08:57:37Z</time>
      </trkpt>
      <trkpt lat="44.82541" lon="1.18445">
        <ele>74.64</ele>
        <time>2017-02-12T08:57:49Z</time>
      </trkpt>
      <trkpt lat="44.82545" lon="1.18442">
        <ele>74.64</ele>
        <time>2017-02-12T08:58:04Z</time>
      </trkpt>
      <trkpt lat="44.82547" lon="1.18446">
        <ele>78</ele>
        <time>2017-02-12T08:58:15Z</time>
      </trkpt>
      <trkpt lat="44.82547" lon="1.18446">
        <ele>78.48</ele>
        <time>2017-02-12T08:58:16Z</time>
      </trkpt>
      <trkpt lat="44.82555" lon="1.18429">
        <ele>79.93</ele>
        <time>2017-02-12T08:58:29Z</time>
      </trkpt>
      <trkpt lat="44.82566" lon="1.18399">
        <ele>80.89</ele>
        <time>2017-02-12T08:58:47Z</time>
      </trkpt>
      <trkpt lat="44.82573" lon="1.18381">
        <ele>82.33</ele>
        <time>2017-02-12T08:59:01Z</time>
      </trkpt>
      <trkpt lat="44.82577" lon="1.18367">
        <ele>80.89</ele>
        <time>2017-02-12T08:59:11Z</time>
      </trkpt>
      <trkpt lat="44.82577" lon="1.18366">
        <ele>80.41</ele>
        <time>2017-02-12T08:59:12Z</time>
      </trkpt>
      <trkpt lat="44.8258" lon="1.1835">
        <ele>79.93</ele>
        <time>2017-02-12T08:59:19Z</time>
      </trkpt>
      <trkpt lat="44.82586" lon="1.18335">
        <ele>79.45</ele>
        <time>2017-02-12T08:59:27Z</time>
      </trkpt>
      <trkpt lat="44.82593" lon="1.18321">
        <ele>79.45</ele>
        <time>2017-02-12T08:59:34Z</time>
      </trkpt>
      <trkpt lat="44.82596" lon="1.1831">
        <ele>80.89</ele>
        <time>2017-02-12T08:59:39Z</time>
      </trkpt>
      <trkpt lat="44.82603" lon="1.18293">
        <ele>82.33</ele>
        <time>2017-02-12T08:59:49Z</time>
      </trkpt>
      <trkpt lat="44.82614" lon="1.18271">
        <ele>86.18</ele>
        <time>2017-02-12T09:00:05Z</time>
      </trkpt>
      <trkpt lat="44.82618" lon="1.18266">
        <ele>86.18</ele>
        <time>2017-02-12T09:00:20Z</time>
      </trkpt>
      <trkpt lat="44.82612" lon="1.18264">
        <ele>87.62</ele>
        <time>2017-02-12T09:00:53Z</time>
      </trkpt>
      <trkpt lat="44.82617" lon="1.18254">
        <ele>88.1</ele>
        <time>2017-02-12T09:01:17Z</time>
      </trkpt>
      <trkpt lat="44.82632" lon="1.18231">
        <ele>89.06</ele>
        <time>2017-02-12T09:01:32Z</time>
      </trkpt>
      <trkpt lat="44.82636" lon="1.18224">
        <ele>87.62</ele>
        <time>2017-02-12T09:01:37Z</time>
      </trkpt>
      <trkpt lat="44.82642" lon="1.18206">
        <ele>87.62</ele>
        <time>2017-02-12T09:01:48Z</time>
      </trkpt>
      <trkpt lat="44.8265" lon="1.1819">
        <ele>86.18</ele>
        <time>2017-02-12T09:01:59Z</time>
      </trkpt>
      <trkpt lat="44.82651" lon="1.18181">
        <ele>85.21</ele>
        <time>2017-02-12T09:02:04Z</time>
      </trkpt>
      <trkpt lat="44.82653" lon="1.18154">
        <ele>80.89</ele>
        <time>2017-02-12T09:02:17Z</time>
      </trkpt>
      <trkpt lat="44.82656" lon="1.1813">
        <ele>77.52</ele>
        <time>2017-02-12T09:02:29Z</time>
      </trkpt>
      <trkpt lat="44.82666" lon="1.18091">
        <ele>75.6</ele>
        <time>2017-02-12T09:02:49Z</time>
      </trkpt>
      <trkpt lat="44.82669" lon="1.18084">
        <ele>77.04</ele>
        <time>2017-02-12T09:02:53Z</time>
      </trkpt>
      <trkpt lat="44.82678" lon="1.18072">
        <ele>79.45</ele>
        <time>2017-02-12T09:03:03Z</time>
      </trkpt>
      <trkpt lat="44.82683" lon="1.18072">
        <ele>80.41</ele>
        <time>2017-02-12T09:03:07Z</time>
      </trkpt>
      <trkpt lat="44.8269" lon="1.18056">
        <ele>83.29</ele>
        <time>2017-02-12T09:03:19Z</time>
      </trkpt>
      <trkpt lat="44.82691" lon="1.18054">
        <ele>83.77</ele>
        <time>2017-02-12T09:03:21Z</time>
      </trkpt>
      <trkpt lat="44.82701" lon="1.18035">
        <ele>85.69</ele>
        <time>2017-02-12T09:03:34Z</time>
      </trkpt>
      <trkpt lat="44.82717" lon="1.18022">
        <ele>89.54</ele>
        <time>2017-02-12T09:03:48Z</time>
      </trkpt>
      <trkpt lat="44.82726" lon="1.18019">
        <ele>90.5</ele>
        <time>2017-02-12T09:04:00Z</time>
      </trkpt>
      <trkpt lat="44.8273" lon="1.18032">
        <ele>93.87</ele>
        <time>2017-02-12T09:04:14Z</time>
      </trkpt>
      <trkpt lat="44.82732" lon="1.18044">
        <ele>95.79</ele>
        <time>2017-02-12T09:04:28Z</time>
      </trkpt>
      <trkpt lat="44.82735" lon="1.18061">
        <ele>98.19</ele>
        <time>2017-02-12T09:04:43Z</time>
      </trkpt>
      <trkpt lat="44.82743" lon="1.18078">
        <ele>101.56</ele>
        <time>2017-02-12T09:05:01Z</time>
      </trkpt>
      <trkpt lat="44.82757" lon="1.18092">
        <ele>103.96</ele>
        <time>2017-02-12T09:05:18Z</time>
      </trkpt>
      <trkpt lat="44.82761" lon="1.18106">
        <ele>106.84</ele>
        <time>2017-02-12T09:05:32Z</time>
      </trkpt>
      <trkpt lat="44.82765" lon="1.18119">
        <ele>109.73</ele>
        <time>2017-02-12T09:05:49Z</time>
      </trkpt>
      <trkpt lat="44.82769" lon="1.18114">
        <ele>112.61</ele>
        <time>2017-02-12T09:06:06Z</time>
      </trkpt>
      <trkpt lat="44.82776" lon="1.18097">
        <ele>115.01</ele>
        <time>2017-02-12T09:06:22Z</time>
      </trkpt>
      <trkpt lat="44.82785" lon="1.18081">
        <ele>117.42</ele>
        <time>2017-02-12T09:06:37Z</time>
      </trkpt>
      <trkpt lat="44.82788" lon="1.18081">
        <ele>117.42</ele>
        <time>2017-02-12T09:06:59Z</time>
      </trkpt>
      <trkpt lat="44.82788" lon="1.18078">
        <ele>116.94</ele>
        <time>2017-02-12T09:07:30Z</time>
      </trkpt>
      <trkpt lat="44.82787" lon="1.18085">
        <ele>117.42</ele>
        <time>2017-02-12T09:07:47Z</time>
      </trkpt>
      <trkpt lat="44.82789" lon="1.18086">
        <ele>118.38</ele>
        <time>2017-02-12T09:07:59Z</time>
      </trkpt>
      <trkpt lat="44.82785" lon="1.18085">
        <ele>118.38</ele>
        <time>2017-02-12T09:08:14Z</time>
      </trkpt>
      <trkpt lat="44.82785" lon="1.18087">
        <ele>118.38</ele>
        <time>2017-02-12T09:08:27Z</time>
      </trkpt>
      <trkpt lat="44.82786" lon="1.18087">
        <ele>118.86</ele>
        <time>2017-02-12T09:08:43Z</time>
      </trkpt>
      <trkpt lat="44.82783" lon="1.18085">
        <ele>119.34</ele>
        <time>2017-02-12T09:09:00Z</time>
      </trkpt>
      <trkpt lat="44.82784" lon="1.18086">
        <ele>117.9</ele>
        <time>2017-02-12T09:09:07Z</time>
      </trkpt>
      <trkpt lat="44.82784" lon="1.18086">
        <ele>119.34</ele>
        <time>2017-02-12T09:09:12Z</time>
      </trkpt>
      <trkpt lat="44.82786" lon="1.18086">
        <ele>117.9</ele>
        <time>2017-02-12T09:09:31Z</time>
      </trkpt>
      <trkpt lat="44.82786" lon="1.18087">
        <ele>117.9</ele>
        <time>2017-02-12T09:09:32Z</time>
      </trkpt>
      <trkpt lat="44.82788" lon="1.18088">
        <ele>119.34</ele>
        <time>2017-02-12T09:09:39Z</time>
      </trkpt>
      <trkpt lat="44.82789" lon="1.18085">
        <ele>119.34</ele>
        <time>2017-02-12T09:09:57Z</time>
      </trkpt>
      <trkpt lat="44.82788" lon="1.18084">
        <ele>119.34</ele>
        <time>2017-02-12T09:10:11Z</time>
      </trkpt>
      <trkpt lat="44.82783" lon="1.18083">
        <ele>120.3</ele>
        <time>2017-02-12T09:10:35Z</time>
      </trkpt>
      <trkpt lat="44.82784" lon="1.1808">
        <ele>122.22</ele>
        <time>2017-02-12T09:10:40Z</time>
      </trkpt>
      <trkpt lat="44.82783" lon="1.18079">
        <ele>120.78</ele>
        <time>2017-02-12T09:10:43Z</time>
      </trkpt>
      <trkpt lat="44.82785" lon="1.18074">
        <ele>124.63</ele>
        <time>2017-02-12T09:10:51Z</time>
      </trkpt>
      <trkpt lat="44.82789" lon="1.18061">
        <ele>124.15</ele>
        <time>2017-02-12T09:11:07Z</time>
      </trkpt>
      <trkpt lat="44.82789" lon="1.1806">
        <ele>124.15</ele>
        <time>2017-02-12T09:11:08Z</time>
      </trkpt>
      <trkpt lat="44.82792" lon="1.18047">
        <ele>123.67</ele>
        <time>2017-02-12T09:11:19Z</time>
      </trkpt>
      <trkpt lat="44.82795" lon="1.1804">
        <ele>123.67</ele>
        <time>2017-02-12T09:11:23Z</time>
      </trkpt>
      <trkpt lat="44.82801" lon="1.18031">
        <ele>125.11</ele>
        <time>2017-02-12T09:11:30Z</time>
      </trkpt>
      <trkpt lat="44.82805" lon="1.18025">
        <ele>125.11</ele>
        <time>2017-02-12T09:11:36Z</time>
      </trkpt>
      <trkpt lat="44.82809" lon="1.18024">
        <ele>125.11</ele>
        <time>2017-02-12T09:11:39Z</time>
      </trkpt>
      <trkpt lat="44.82827" lon="1.18026">
        <ele>126.55</ele>
        <time>2017-02-12T09:11:54Z</time>
      </trkpt>
      <trkpt lat="44.82837" lon="1.18029">
        <ele>127.99</ele>
        <time>2017-02-12T09:12:05Z</time>
      </trkpt>
      <trkpt lat="44.82846" lon="1.18033">
        <ele>128.95</ele>
        <time>2017-02-12T09:12:14Z</time>
      </trkpt>
      <trkpt lat="44.82858" lon="1.1804">
        <ele>131.84</ele>
        <time>2017-02-12T09:12:27Z</time>
      </trkpt>
      <trkpt lat="44.82863" lon="1.18046">
        <ele>132.8</ele>
        <time>2017-02-12T09:12:41Z</time>
      </trkpt>
      <trkpt lat="44.82871" lon="1.18055">
        <ele>136.16</ele>
        <time>2017-02-12T09:12:53Z</time>
      </trkpt>
      <trkpt lat="44.82873" lon="1.18056">
        <ele>136.64</ele>
        <time>2017-02-12T09:12:55Z</time>
      </trkpt>
      <trkpt lat="44.82884" lon="1.18062">
        <ele>136.64</ele>
        <time>2017-02-12T09:13:09Z</time>
      </trkpt>
      <trkpt lat="44.82895" lon="1.18066">
        <ele>137.61</ele>
        <time>2017-02-12T09:13:23Z</time>
      </trkpt>
      <trkpt lat="44.82906" lon="1.18066">
        <ele>136.64</ele>
        <time>2017-02-12T09:13:38Z</time>
      </trkpt>
      <trkpt lat="44.82917" lon="1.18072">
        <ele>138.57</ele>
        <time>2017-02-12T09:13:50Z</time>
      </trkpt>
      <trkpt lat="44.8292" lon="1.18073">
        <ele>139.05</ele>
        <time>2017-02-12T09:13:53Z</time>
      </trkpt>
      <trkpt lat="44.8293" lon="1.18074">
        <ele>138.09</ele>
        <time>2017-02-12T09:14:02Z</time>
      </trkpt>
      <trkpt lat="44.82934" lon="1.18072">
        <ele>137.13</ele>
        <time>2017-02-12T09:14:06Z</time>
      </trkpt>
      <trkpt lat="44.8294" lon="1.18073">
        <ele>136.64</ele>
        <time>2017-02-12T09:14:11Z</time>
      </trkpt>
      <trkpt lat="44.82943" lon="1.18074">
        <ele>136.64</ele>
        <time>2017-02-12T09:14:13Z</time>
      </trkpt>
      <trkpt lat="44.82971" lon="1.18077">
        <ele>136.16</ele>
        <time>2017-02-12T09:14:30Z</time>
      </trkpt>
      <trkpt lat="44.82992" lon="1.18075">
        <ele>135.68</ele>
        <time>2017-02-12T09:14:46Z</time>
      </trkpt>
      <trkpt lat="44.83008" lon="1.18072">
        <ele>135.2</ele>
        <time>2017-02-12T09:15:00Z</time>
      </trkpt>
      <trkpt lat="44.83021" lon="1.18065">
        <ele>135.2</ele>
        <time>2017-02-12T09:15:12Z</time>
      </trkpt>
      <trkpt lat="44.8304" lon="1.18058">
        <ele>135.2</ele>
        <time>2017-02-12T09:15:26Z</time>
      </trkpt>
      <trkpt lat="44.83049" lon="1.18054">
        <ele>135.68</ele>
        <time>2017-02-12T09:15:33Z</time>
      </trkpt>
      <trkpt lat="44.83054" lon="1.18055">
        <ele>137.13</ele>
        <time>2017-02-12T09:15:37Z</time>
      </trkpt>
      <trkpt lat="44.83073" lon="1.18057">
        <ele>138.57</ele>
        <time>2017-02-12T09:15:51Z</time>
      </trkpt>
      <trkpt lat="44.83076" lon="1.18056">
        <ele>138.57</ele>
        <time>2017-02-12T09:15:53Z</time>
      </trkpt>
      <trkpt lat="44.83086" lon="1.18057">
        <ele>138.57</ele>
        <time>2017-02-12T09:15:58Z</time>
      </trkpt>
      <trkpt lat="44.83092" lon="1.18055">
        <ele>139.05</ele>
        <time>2017-02-12T09:16:01Z</time>
      </trkpt>
      <trkpt lat="44.83113" lon="1.18057">
        <ele>140.01</ele>
        <time>2017-02-12T09:16:14Z</time>
      </trkpt>
      <trkpt lat="44.83134" lon="1.1807">
        <ele>140.01</ele>
        <time>2017-02-12T09:16:29Z</time>
      </trkpt>
      <trkpt lat="44.83149" lon="1.18089">
        <ele>141.45</ele>
        <time>2017-02-12T09:16:45Z</time>
      </trkpt>
      <trkpt lat="44.83155" lon="1.18104">
        <ele>140.49</ele>
        <time>2017-02-12T09:16:57Z</time>
      </trkpt>
      <trkpt lat="44.83156" lon="1.18104">
        <ele>140.49</ele>
        <time>2017-02-12T09:16:58Z</time>
      </trkpt>
      <trkpt lat="44.83166" lon="1.18117">
        <ele>140.49</ele>
        <time>2017-02-12T09:17:09Z</time>
      </trkpt>
      <trkpt lat="44.83168" lon="1.18123">
        <ele>140.01</ele>
        <time>2017-02-12T09:17:12Z</time>
      </trkpt>
      <trkpt lat="44.83175" lon="1.18134">
        <ele>139.53</ele>
        <time>2017-02-12T09:17:21Z</time>
      </trkpt>
      <trkpt lat="44.83178" lon="1.18139">
        <ele>138.57</ele>
        <time>2017-02-12T09:17:24Z</time>
      </trkpt>
      <trkpt lat="44.8318" lon="1.18142">
        <ele>138.57</ele>
        <time>2017-02-12T09:17:26Z</time>
      </trkpt>
      <trkpt lat="44.83192" lon="1.18168">
        <ele>135.68</ele>
        <time>2017-02-12T09:17:40Z</time>
      </trkpt>
      <trkpt lat="44.83199" lon="1.18173">
        <ele>135.2</ele>
        <time>2017-02-12T09:17:44Z</time>
      </trkpt>
      <trkpt lat="44.83213" lon="1.18206">
        <ele>135.68</ele>
        <time>2017-02-12T09:18:00Z</time>
      </trkpt>
      <trkpt lat="44.83219" lon="1.1821">
        <ele>137.61</ele>
        <time>2017-02-12T09:18:05Z</time>
      </trkpt>
      <trkpt lat="44.83229" lon="1.18216">
        <ele>136.16</ele>
        <time>2017-02-12T09:18:13Z</time>
      </trkpt>
      <trkpt lat="44.83239" lon="1.18225">
        <ele>133.76</ele>
        <time>2017-02-12T09:18:24Z</time>
      </trkpt>
      <trkpt lat="44.83247" lon="1.18245">
        <ele>132.32</ele>
        <time>2017-02-12T09:18:37Z</time>
      </trkpt>
      <trkpt lat="44.8325" lon="1.1825">
        <ele>132.32</ele>
        <time>2017-02-12T09:18:40Z</time>
      </trkpt>
      <trkpt lat="44.8326" lon="1.18267">
        <ele>132.32</ele>
        <time>2017-02-12T09:18:52Z</time>
      </trkpt>
      <trkpt lat="44.83262" lon="1.18267">
        <ele>131.36</ele>
        <time>2017-02-12T09:18:55Z</time>
      </trkpt>
      <trkpt lat="44.83259" lon="1.18263">
        <ele>127.99</ele>
        <time>2017-02-12T09:19:06Z</time>
      </trkpt>
      <trkpt lat="44.83255" lon="1.18248">
        <ele>125.11</ele>
        <time>2017-02-12T09:19:17Z</time>
      </trkpt>
      <trkpt lat="44.83255" lon="1.18247">
        <ele>125.11</ele>
        <time>2017-02-12T09:19:18Z</time>
      </trkpt>
      <trkpt lat="44.83255" lon="1.18244">
        <ele>125.11</ele>
        <time>2017-02-12T09:19:20Z</time>
      </trkpt>
      <trkpt lat="44.83255" lon="1.18242">
        <ele>124.63</ele>
        <time>2017-02-12T09:19:22Z</time>
      </trkpt>
      <trkpt lat="44.83244" lon="1.18224">
        <ele>122.71</ele>
        <time>2017-02-12T09:19:33Z</time>
      </trkpt>
      <trkpt lat="44.83239" lon="1.18208">
        <ele>120.3</ele>
        <time>2017-02-12T09:19:46Z</time>
      </trkpt>
      <trkpt lat="44.83238" lon="1.1819">
        <ele>117.9</ele>
        <time>2017-02-12T09:19:59Z</time>
      </trkpt>
      <trkpt lat="44.83232" lon="1.18171">
        <ele>115.5</ele>
        <time>2017-02-12T09:20:11Z</time>
      </trkpt>
      <trkpt lat="44.8323" lon="1.18148">
        <ele>112.61</ele>
        <time>2017-02-12T09:20:24Z</time>
      </trkpt>
      <trkpt lat="44.83226" lon="1.18134">
        <ele>110.69</ele>
        <time>2017-02-12T09:20:31Z</time>
      </trkpt>
      <trkpt lat="44.83222" lon="1.18119">
        <ele>110.21</ele>
        <time>2017-02-12T09:20:40Z</time>
      </trkpt>
      <trkpt lat="44.83218" lon="1.18103">
        <ele>110.21</ele>
        <time>2017-02-12T09:20:48Z</time>
      </trkpt>
      <trkpt lat="44.83212" lon="1.1808">
        <ele>108.29</ele>
        <time>2017-02-12T09:21:03Z</time>
      </trkpt>
      <trkpt lat="44.83216" lon="1.18073">
        <ele>108.29</ele>
        <time>2017-02-12T09:21:11Z</time>
      </trkpt>
      <trkpt lat="44.83218" lon="1.18057">
        <ele>110.21</ele>
        <time>2017-02-12T09:21:16Z</time>
      </trkpt>
      <trkpt lat="44.83219" lon="1.18042">
        <ele>111.17</ele>
        <time>2017-02-12T09:21:20Z</time>
      </trkpt>
      <trkpt lat="44.83223" lon="1.18028">
        <ele>112.13</ele>
        <time>2017-02-12T09:21:26Z</time>
      </trkpt>
      <trkpt lat="44.83235" lon="1.18008">
        <ele>115.5</ele>
        <time>2017-02-12T09:21:40Z</time>
      </trkpt>
      <trkpt lat="44.83239" lon="1.18002">
        <ele>115.98</ele>
        <time>2017-02-12T09:21:45Z</time>
      </trkpt>
      <trkpt lat="44.83246" lon="1.17998">
        <ele>115.98</ele>
        <time>2017-02-12T09:21:51Z</time>
      </trkpt>
      <trkpt lat="44.83265" lon="1.17981">
        <ele>117.42</ele>
        <time>2017-02-12T09:22:08Z</time>
      </trkpt>
      <trkpt lat="44.8328" lon="1.17973">
        <ele>118.38</ele>
        <time>2017-02-12T09:22:23Z</time>
      </trkpt>
      <trkpt lat="44.833" lon="1.17965">
        <ele>121.26</ele>
        <time>2017-02-12T09:22:40Z</time>
      </trkpt>
      <trkpt lat="44.83312" lon="1.17968">
        <ele>123.19</ele>
        <time>2017-02-12T09:22:53Z</time>
      </trkpt>
      <trkpt lat="44.83333" lon="1.17975">
        <ele>124.15</ele>
        <time>2017-02-12T09:23:10Z</time>
      </trkpt>
      <trkpt lat="44.83339" lon="1.17976">
        <ele>125.59</ele>
        <time>2017-02-12T09:23:16Z</time>
      </trkpt>
      <trkpt lat="44.8335" lon="1.17979">
        <ele>128.95</ele>
        <time>2017-02-12T09:23:27Z</time>
      </trkpt>
      <trkpt lat="44.83356" lon="1.17978">
        <ele>127.03</ele>
        <time>2017-02-12T09:23:32Z</time>
      </trkpt>
      <trkpt lat="44.83364" lon="1.17979">
        <ele>128.47</ele>
        <time>2017-02-12T09:23:39Z</time>
      </trkpt>
      <trkpt lat="44.83389" lon="1.1798">
        <ele>129.43</ele>
        <time>2017-02-12T09:23:52Z</time>
      </trkpt>
      <trkpt lat="44.83401" lon="1.17977">
        <ele>130.88</ele>
        <time>2017-02-12T09:24:06Z</time>
      </trkpt>
      <trkpt lat="44.83406" lon="1.17969">
        <ele>132.32</ele>
        <time>2017-02-12T09:24:14Z</time>
      </trkpt>
      <trkpt lat="44.83413" lon="1.1796">
        <ele>132.8</ele>
        <time>2017-02-12T09:24:21Z</time>
      </trkpt>
      <trkpt lat="44.83427" lon="1.17942">
        <ele>133.28</ele>
        <time>2017-02-12T09:24:36Z</time>
      </trkpt>
      <trkpt lat="44.83435" lon="1.17931">
        <ele>134.24</ele>
        <time>2017-02-12T09:24:44Z</time>
      </trkpt>
      <trkpt lat="44.83438" lon="1.17929">
        <ele>136.64</ele>
        <time>2017-02-12T09:24:48Z</time>
      </trkpt>
      <trkpt lat="44.8344" lon="1.17927">
        <ele>138.09</ele>
        <time>2017-02-12T09:24:50Z</time>
      </trkpt>
      <trkpt lat="44.83447" lon="1.1791">
        <ele>140.01</ele>
        <time>2017-02-12T09:25:03Z</time>
      </trkpt>
      <trkpt lat="44.83452" lon="1.17901">
        <ele>142.89</ele>
        <time>2017-02-12T09:25:17Z</time>
      </trkpt>
      <trkpt lat="44.83454" lon="1.17896">
        <ele>142.89</ele>
        <time>2017-02-12T09:25:40Z</time>
      </trkpt>
      <trkpt lat="44.83454" lon="1.17888">
        <ele>144.34</ele>
        <time>2017-02-12T09:25:53Z</time>
      </trkpt>
      <trkpt lat="44.83457" lon="1.17881">
        <ele>144.82</ele>
        <time>2017-02-12T09:26:06Z</time>
      </trkpt>
      <trkpt lat="44.83457" lon="1.17875">
        <ele>145.3</ele>
        <time>2017-02-12T09:26:31Z</time>
      </trkpt>
      <trkpt lat="44.83458" lon="1.17875">
        <ele>145.3</ele>
        <time>2017-02-12T09:26:33Z</time>
      </trkpt>
      <trkpt lat="44.83463" lon="1.17875">
        <ele>147.7</ele>
        <time>2017-02-12T09:26:47Z</time>
      </trkpt>
      <trkpt lat="44.83462" lon="1.17882">
        <ele>148.18</ele>
        <time>2017-02-12T09:26:57Z</time>
      </trkpt>
      <trkpt lat="44.8346" lon="1.17897">
        <ele>149.62</ele>
        <time>2017-02-12T09:27:11Z</time>
      </trkpt>
      <trkpt lat="44.8346" lon="1.1791">
        <ele>150.1</ele>
        <time>2017-02-12T09:27:22Z</time>
      </trkpt>
      <trkpt lat="44.83462" lon="1.17931">
        <ele>152.99</ele>
        <time>2017-02-12T09:27:34Z</time>
      </trkpt>
      <trkpt lat="44.83463" lon="1.17934">
        <ele>153.95</ele>
        <time>2017-02-12T09:27:36Z</time>
      </trkpt>
      <trkpt lat="44.83473" lon="1.17945">
        <ele>157.79</ele>
        <time>2017-02-12T09:27:49Z</time>
      </trkpt>
      <trkpt lat="44.83474" lon="1.17946">
        <ele>157.79</ele>
        <time>2017-02-12T09:27:50Z</time>
      </trkpt>
      <trkpt lat="44.83487" lon="1.17945">
        <ele>160.2</ele>
        <time>2017-02-12T09:28:04Z</time>
      </trkpt>
      <trkpt lat="44.83501" lon="1.17938">
        <ele>163.08</ele>
        <time>2017-02-12T09:28:20Z</time>
      </trkpt>
      <trkpt lat="44.83511" lon="1.17931">
        <ele>165.96</ele>
        <time>2017-02-12T09:28:34Z</time>
      </trkpt>
      <trkpt lat="44.83519" lon="1.17926">
        <ele>169.33</ele>
        <time>2017-02-12T09:28:44Z</time>
      </trkpt>
      <trkpt lat="44.83531" lon="1.17917">
        <ele>171.73</ele>
        <time>2017-02-12T09:28:58Z</time>
      </trkpt>
      <trkpt lat="44.83541" lon="1.17909">
        <ele>174.62</ele>
        <time>2017-02-12T09:29:11Z</time>
      </trkpt>
      <trkpt lat="44.83551" lon="1.179">
        <ele>176.54</ele>
        <time>2017-02-12T09:29:25Z</time>
      </trkpt>
      <trkpt lat="44.83561" lon="1.1789">
        <ele>178.46</ele>
        <time>2017-02-12T09:29:39Z</time>
      </trkpt>
      <trkpt lat="44.83564" lon="1.17884">
        <ele>178.46</ele>
        <time>2017-02-12T09:29:53Z</time>
      </trkpt>
      <trkpt lat="44.83568" lon="1.17882">
        <ele>180.38</ele>
        <time>2017-02-12T09:30:01Z</time>
      </trkpt>
      <trkpt lat="44.8357" lon="1.1788">
        <ele>182.31</ele>
        <time>2017-02-12T09:30:04Z</time>
      </trkpt>
      <trkpt lat="44.83576" lon="1.17876">
        <ele>185.19</ele>
        <time>2017-02-12T09:30:13Z</time>
      </trkpt>
      <trkpt lat="44.8358" lon="1.17876">
        <ele>188.56</ele>
        <time>2017-02-12T09:30:23Z</time>
      </trkpt>
      <trkpt lat="44.83583" lon="1.1789">
        <ele>188.08</ele>
        <time>2017-02-12T09:30:40Z</time>
      </trkpt>
      <trkpt lat="44.83592" lon="1.17907">
        <ele>190.48</ele>
        <time>2017-02-12T09:30:53Z</time>
      </trkpt>
      <trkpt lat="44.836" lon="1.17911">
        <ele>193.84</ele>
        <time>2017-02-12T09:31:04Z</time>
      </trkpt>
      <trkpt lat="44.83603" lon="1.17914">
        <ele>195.28</ele>
        <time>2017-02-12T09:31:08Z</time>
      </trkpt>
      <trkpt lat="44.83613" lon="1.17914">
        <ele>196.25</ele>
        <time>2017-02-12T09:31:19Z</time>
      </trkpt>
      <trkpt lat="44.83621" lon="1.17909">
        <ele>199.61</ele>
        <time>2017-02-12T09:31:28Z</time>
      </trkpt>
      <trkpt lat="44.83622" lon="1.17907">
        <ele>199.61</ele>
        <time>2017-02-12T09:31:30Z</time>
      </trkpt>
      <trkpt lat="44.83631" lon="1.17897">
        <ele>201.05</ele>
        <time>2017-02-12T09:31:44Z</time>
      </trkpt>
      <trkpt lat="44.83641" lon="1.17884">
        <ele>204.42</ele>
        <time>2017-02-12T09:31:59Z</time>
      </trkpt>
      <trkpt lat="44.8365" lon="1.1787">
        <ele>207.78</ele>
        <time>2017-02-12T09:32:14Z</time>
      </trkpt>
      <trkpt lat="44.83656" lon="1.17858">
        <ele>210.19</ele>
        <time>2017-02-12T09:32:27Z</time>
      </trkpt>
      <trkpt lat="44.83666" lon="1.17851">
        <ele>211.15</ele>
        <time>2017-02-12T09:32:40Z</time>
      </trkpt>
      <trkpt lat="44.83679" lon="1.17845">
        <ele>213.55</ele>
        <time>2017-02-12T09:32:53Z</time>
      </trkpt>
      <trkpt lat="44.83692" lon="1.17832">
        <ele>215.95</ele>
        <time>2017-02-12T09:33:09Z</time>
      </trkpt>
      <trkpt lat="44.83706" lon="1.17822">
        <ele>215.95</ele>
        <time>2017-02-12T09:33:23Z</time>
      </trkpt>
      <trkpt lat="44.8371" lon="1.17818">
        <ele>214.03</ele>
        <time>2017-02-12T09:33:30Z</time>
      </trkpt>
      <trkpt lat="44.83713" lon="1.17816">
        <ele>215.95</ele>
        <time>2017-02-12T09:33:33Z</time>
      </trkpt>
      <trkpt lat="44.83723" lon="1.17809">
        <ele>218.84</ele>
        <time>2017-02-12T09:33:45Z</time>
      </trkpt>
      <trkpt lat="44.83735" lon="1.17801">
        <ele>218.84</ele>
        <time>2017-02-12T09:33:57Z</time>
      </trkpt>
      <trkpt lat="44.83753" lon="1.17789">
        <ele>221.24</ele>
        <time>2017-02-12T09:34:12Z</time>
      </trkpt>
      <trkpt lat="44.83757" lon="1.17787">
        <ele>219.8</ele>
        <time>2017-02-12T09:34:15Z</time>
      </trkpt>
      <trkpt lat="44.83765" lon="1.17779">
        <ele>219.8</ele>
        <time>2017-02-12T09:34:22Z</time>
      </trkpt>
      <trkpt lat="44.83783" lon="1.17775">
        <ele>218.84</ele>
        <time>2017-02-12T09:34:37Z</time>
      </trkpt>
      <trkpt lat="44.83799" lon="1.17771">
        <ele>218.84</ele>
        <time>2017-02-12T09:34:52Z</time>
      </trkpt>
      <trkpt lat="44.83802" lon="1.17769">
        <ele>217.4</ele>
        <time>2017-02-12T09:34:56Z</time>
      </trkpt>
      <trkpt lat="44.83811" lon="1.17767">
        <ele>216.91</ele>
        <time>2017-02-12T09:35:12Z</time>
      </trkpt>
      <trkpt lat="44.83812" lon="1.17767">
        <ele>216.91</ele>
        <time>2017-02-12T09:35:13Z</time>
      </trkpt>
      <trkpt lat="44.83812" lon="1.17767">
        <ele>218.36</ele>
        <time>2017-02-12T09:35:15Z</time>
      </trkpt>
      <trkpt lat="44.83814" lon="1.17768">
        <ele>217.4</ele>
        <time>2017-02-12T09:35:23Z</time>
      </trkpt>
      <trkpt lat="44.83814" lon="1.17768">
        <ele>217.4</ele>
        <time>2017-02-12T09:35:36Z</time>
      </trkpt>
      <trkpt lat="44.83815" lon="1.17769">
        <ele>218.36</ele>
        <time>2017-02-12T09:35:59Z</time>
      </trkpt>
      <trkpt lat="44.8382" lon="1.17773">
        <ele>218.36</ele>
        <time>2017-02-12T09:36:15Z</time>
      </trkpt>
      <trkpt lat="44.8382" lon="1.17776">
        <ele>216.91</ele>
        <time>2017-02-12T09:36:27Z</time>
      </trkpt>
      <trkpt lat="44.8382" lon="1.17778">
        <ele>216.91</ele>
        <time>2017-02-12T09:36:49Z</time>
      </trkpt>
      <trkpt lat="44.83818" lon="1.17777">
        <ele>216.43</ele>
        <time>2017-02-12T09:37:13Z</time>
      </trkpt>
      <trkpt lat="44.83817" lon="1.17778">
        <ele>215.95</ele>
        <time>2017-02-12T09:37:38Z</time>
      </trkpt>
      <trkpt lat="44.83817" lon="1.17777">
        <ele>215.95</ele>
        <time>2017-02-12T09:37:52Z</time>
      </trkpt>
      <trkpt lat="44.83816" lon="1.17773">
        <ele>217.4</ele>
        <time>2017-02-12T09:38:05Z</time>
      </trkpt>
      <trkpt lat="44.83818" lon="1.17768">
        <ele>217.4</ele>
        <time>2017-02-12T09:38:26Z</time>
      </trkpt>
      <trkpt lat="44.83818" lon="1.17768">
        <ele>217.4</ele>
        <time>2017-02-12T09:38:27Z</time>
      </trkpt>
      <trkpt lat="44.83818" lon="1.1777">
        <ele>217.4</ele>
        <time>2017-02-12T09:38:50Z</time>
      </trkpt>
      <trkpt lat="44.8382" lon="1.17777">
        <ele>217.4</ele>
        <time>2017-02-12T09:39:04Z</time>
      </trkpt>
      <trkpt lat="44.83821" lon="1.17779">
        <ele>215.95</ele>
        <time>2017-02-12T09:39:16Z</time>
      </trkpt>
      <trkpt lat="44.83823" lon="1.17785">
        <ele>215.47</ele>
        <time>2017-02-12T09:39:41Z</time>
      </trkpt>
      <trkpt lat="44.83826" lon="1.17785">
        <ele>214.99</ele>
        <time>2017-02-12T09:40:13Z</time>
      </trkpt>
      <trkpt lat="44.83825" lon="1.17787">
        <ele>215.95</ele>
        <time>2017-02-12T09:40:34Z</time>
      </trkpt>
      <trkpt lat="44.83824" lon="1.17784">
        <ele>215.95</ele>
        <time>2017-02-12T09:41:07Z</time>
      </trkpt>
      <trkpt lat="44.83824" lon="1.17786">
        <ele>214.03</ele>
        <time>2017-02-12T09:41:28Z</time>
      </trkpt>
      <trkpt lat="44.83824" lon="1.17787">
        <ele>214.03</ele>
        <time>2017-02-12T09:41:43Z</time>
      </trkpt>
      <trkpt lat="44.83826" lon="1.17786">
        <ele>215.47</ele>
        <time>2017-02-12T09:42:02Z</time>
      </trkpt>
      <trkpt lat="44.83826" lon="1.17784">
        <ele>214.03</ele>
        <time>2017-02-12T09:42:11Z</time>
      </trkpt>
      <trkpt lat="44.83826" lon="1.17787">
        <ele>214.51</ele>
        <time>2017-02-12T09:42:23Z</time>
      </trkpt>
      <trkpt lat="44.83825" lon="1.17787">
        <ele>214.51</ele>
        <time>2017-02-12T09:42:49Z</time>
      </trkpt>
      <trkpt lat="44.83824" lon="1.17787">
        <ele>214.99</ele>
        <time>2017-02-12T09:43:06Z</time>
      </trkpt>
      <trkpt lat="44.83824" lon="1.17788">
        <ele>215.95</ele>
        <time>2017-02-12T09:43:28Z</time>
      </trkpt>
      <trkpt lat="44.83827" lon="1.17787">
        <ele>214.51</ele>
        <time>2017-02-12T09:43:33Z</time>
      </trkpt>
      <trkpt lat="44.83832" lon="1.17792">
        <ele>215.95</ele>
        <time>2017-02-12T09:43:41Z</time>
      </trkpt>
      <trkpt lat="44.83843" lon="1.1781">
        <ele>213.07</ele>
        <time>2017-02-12T09:43:57Z</time>
      </trkpt>
      <trkpt lat="44.83849" lon="1.17823">
        <ele>214.99</ele>
        <time>2017-02-12T09:44:07Z</time>
      </trkpt>
      <trkpt lat="44.8385" lon="1.17828">
        <ele>216.91</ele>
        <time>2017-02-12T09:44:10Z</time>
      </trkpt>
      <trkpt lat="44.83852" lon="1.17833">
        <ele>215.47</ele>
        <time>2017-02-12T09:44:13Z</time>
      </trkpt>
      <trkpt lat="44.83859" lon="1.17856">
        <ele>214.51</ele>
        <time>2017-02-12T09:44:28Z</time>
      </trkpt>
      <trkpt lat="44.83863" lon="1.17877">
        <ele>213.07</ele>
        <time>2017-02-12T09:44:43Z</time>
      </trkpt>
      <trkpt lat="44.83865" lon="1.17883">
        <ele>213.07</ele>
        <time>2017-02-12T09:44:46Z</time>
      </trkpt>
      <trkpt lat="44.83865" lon="1.17897">
        <ele>213.07</ele>
        <time>2017-02-12T09:44:53Z</time>
      </trkpt>
      <trkpt lat="44.83863" lon="1.17926">
        <ele>211.63</ele>
        <time>2017-02-12T09:45:07Z</time>
      </trkpt>
      <trkpt lat="44.83863" lon="1.1795">
        <ele>209.22</ele>
        <time>2017-02-12T09:45:21Z</time>
      </trkpt>
      <trkpt lat="44.83865" lon="1.17953">
        <ele>208.74</ele>
        <time>2017-02-12T09:45:23Z</time>
      </trkpt>
      <trkpt lat="44.83876" lon="1.17975">
        <ele>206.82</ele>
        <time>2017-02-12T09:45:39Z</time>
      </trkpt>
      <trkpt lat="44.83891" lon="1.17994">
        <ele>205.86</ele>
        <time>2017-02-12T09:45:54Z</time>
      </trkpt>
      <trkpt lat="44.83898" lon="1.18002">
        <ele>206.34</ele>
        <time>2017-02-12T09:46:01Z</time>
      </trkpt>
      <trkpt lat="44.83916" lon="1.18028">
        <ele>206.34</ele>
        <time>2017-02-12T09:46:16Z</time>
      </trkpt>
      <trkpt lat="44.83919" lon="1.18031">
        <ele>207.3</ele>
        <time>2017-02-12T09:46:18Z</time>
      </trkpt>
      <trkpt lat="44.83936" lon="1.18052">
        <ele>207.78</ele>
        <time>2017-02-12T09:46:31Z</time>
      </trkpt>
      <trkpt lat="44.83954" lon="1.18072">
        <ele>208.74</ele>
        <time>2017-02-12T09:46:45Z</time>
      </trkpt>
      <trkpt lat="44.83972" lon="1.18098">
        <ele>208.74</ele>
        <time>2017-02-12T09:47:00Z</time>
      </trkpt>
      <trkpt lat="44.83976" lon="1.18106">
        <ele>207.78</ele>
        <time>2017-02-12T09:47:04Z</time>
      </trkpt>
      <trkpt lat="44.83995" lon="1.18134">
        <ele>205.38</ele>
        <time>2017-02-12T09:47:20Z</time>
      </trkpt>
      <trkpt lat="44.84008" lon="1.18155">
        <ele>206.34</ele>
        <time>2017-02-12T09:47:32Z</time>
      </trkpt>
      <trkpt lat="44.84021" lon="1.18185">
        <ele>206.34</ele>
        <time>2017-02-12T09:47:48Z</time>
      </trkpt>
      <trkpt lat="44.84032" lon="1.1821">
        <ele>204.9</ele>
        <time>2017-02-12T09:48:01Z</time>
      </trkpt>
      <trkpt lat="44.84036" lon="1.18224">
        <ele>205.86</ele>
        <time>2017-02-12T09:48:08Z</time>
      </trkpt>
      <trkpt lat="44.84045" lon="1.1826">
        <ele>207.78</ele>
        <time>2017-02-12T09:48:25Z</time>
      </trkpt>
      <trkpt lat="44.84046" lon="1.18264">
        <ele>209.22</ele>
        <time>2017-02-12T09:48:27Z</time>
      </trkpt>
      <trkpt lat="44.8405" lon="1.18284">
        <ele>207.78</ele>
        <time>2017-02-12T09:48:36Z</time>
      </trkpt>
      <trkpt lat="44.84054" lon="1.18316">
        <ele>211.15</ele>
        <time>2017-02-12T09:48:52Z</time>
      </trkpt>
      <trkpt lat="44.84057" lon="1.18355">
        <ele>211.15</ele>
        <time>2017-02-12T09:49:12Z</time>
      </trkpt>
      <trkpt lat="44.8406" lon="1.18393">
        <ele>212.59</ele>
        <time>2017-02-12T09:49:31Z</time>
      </trkpt>
      <trkpt lat="44.84063" lon="1.18427">
        <ele>213.07</ele>
        <time>2017-02-12T09:49:49Z</time>
      </trkpt>
      <trkpt lat="44.84066" lon="1.18443">
        <ele>214.51</ele>
        <time>2017-02-12T09:49:57Z</time>
      </trkpt>
      <trkpt lat="44.84073" lon="1.18476">
        <ele>216.43</ele>
        <time>2017-02-12T09:50:12Z</time>
      </trkpt>
      <trkpt lat="44.84079" lon="1.18521">
        <ele>216.91</ele>
        <time>2017-02-12T09:50:34Z</time>
      </trkpt>
      <trkpt lat="44.84079" lon="1.18536">
        <ele>217.88</ele>
        <time>2017-02-12T09:50:49Z</time>
      </trkpt>
      <trkpt lat="44.8408" lon="1.1854">
        <ele>216.43</ele>
        <time>2017-02-12T09:51:11Z</time>
      </trkpt>
      <trkpt lat="44.84081" lon="1.18541">
        <ele>216.43</ele>
        <time>2017-02-12T09:51:40Z</time>
      </trkpt>
      <trkpt lat="44.84079" lon="1.18544">
        <ele>215.47</ele>
        <time>2017-02-12T09:52:15Z</time>
      </trkpt>
      <trkpt lat="44.84079" lon="1.18544">
        <ele>217.4</ele>
        <time>2017-02-12T09:52:24Z</time>
      </trkpt>
      <trkpt lat="44.84079" lon="1.18544">
        <ele>215.95</ele>
        <time>2017-02-12T09:52:28Z</time>
      </trkpt>
      <trkpt lat="44.84079" lon="1.18544">
        <ele>217.4</ele>
        <time>2017-02-12T09:52:32Z</time>
      </trkpt>
      <trkpt lat="44.84076" lon="1.18543">
        <ele>215.95</ele>
        <time>2017-02-12T09:52:51Z</time>
      </trkpt>
      <trkpt lat="44.84077" lon="1.18547">
        <ele>215.95</ele>
        <time>2017-02-12T09:53:18Z</time>
      </trkpt>
      <trkpt lat="44.8408" lon="1.18567">
        <ele>216.91</ele>
        <time>2017-02-12T09:53:33Z</time>
      </trkpt>
      <trkpt lat="44.84085" lon="1.18595">
        <ele>218.36</ele>
        <time>2017-02-12T09:53:51Z</time>
      </trkpt>
      <trkpt lat="44.84088" lon="1.18623">
        <ele>219.32</ele>
        <time>2017-02-12T09:54:08Z</time>
      </trkpt>
      <trkpt lat="44.84091" lon="1.18655">
        <ele>219.8</ele>
        <time>2017-02-12T09:54:26Z</time>
      </trkpt>
      <trkpt lat="44.84093" lon="1.18688">
        <ele>218.84</ele>
        <time>2017-02-12T09:54:44Z</time>
      </trkpt>
      <trkpt lat="44.84094" lon="1.18689">
        <ele>218.84</ele>
        <time>2017-02-12T09:54:45Z</time>
      </trkpt>
      <trkpt lat="44.84095" lon="1.18703">
        <ele>220.28</ele>
        <time>2017-02-12T09:54:52Z</time>
      </trkpt>
      <trkpt lat="44.84099" lon="1.18728">
        <ele>219.32</ele>
        <time>2017-02-12T09:55:07Z</time>
      </trkpt>
      <trkpt lat="44.84101" lon="1.18734">
        <ele>215.95</ele>
        <time>2017-02-12T09:55:10Z</time>
      </trkpt>
      <trkpt lat="44.84101" lon="1.18737">
        <ele>215.95</ele>
        <time>2017-02-12T09:55:11Z</time>
      </trkpt>
      <trkpt lat="44.84102" lon="1.18742">
        <ele>218.84</ele>
        <time>2017-02-12T09:55:14Z</time>
      </trkpt>
      <trkpt lat="44.84102" lon="1.18746">
        <ele>220.28</ele>
        <time>2017-02-12T09:55:16Z</time>
      </trkpt>
      <trkpt lat="44.84103" lon="1.1875">
        <ele>218.36</ele>
        <time>2017-02-12T09:55:18Z</time>
      </trkpt>
      <trkpt lat="44.84104" lon="1.18778">
        <ele>216.91</ele>
        <time>2017-02-12T09:55:33Z</time>
      </trkpt>
      <trkpt lat="44.84104" lon="1.18784">
        <ele>216.91</ele>
        <time>2017-02-12T09:55:36Z</time>
      </trkpt>
      <trkpt lat="44.84104" lon="1.18814">
        <ele>216.91</ele>
        <time>2017-02-12T09:55:52Z</time>
      </trkpt>
      <trkpt lat="44.84104" lon="1.18825">
        <ele>218.36</ele>
        <time>2017-02-12T09:55:57Z</time>
      </trkpt>
      <trkpt lat="44.84102" lon="1.18853">
        <ele>219.32</ele>
        <time>2017-02-12T09:56:09Z</time>
      </trkpt>
      <trkpt lat="44.841" lon="1.18883">
        <ele>222.2</ele>
        <time>2017-02-12T09:56:22Z</time>
      </trkpt>
      <trkpt lat="44.84095" lon="1.1892">
        <ele>224.61</ele>
        <time>2017-02-12T09:56:37Z</time>
      </trkpt>
      <trkpt lat="44.8409" lon="1.18957">
        <ele>227.49</ele>
        <time>2017-02-12T09:56:53Z</time>
      </trkpt>
      <trkpt lat="44.84085" lon="1.18992">
        <ele>229.89</ele>
        <time>2017-02-12T09:57:10Z</time>
      </trkpt>
      <trkpt lat="44.84089" lon="1.19006">
        <ele>229.89</ele>
        <time>2017-02-12T09:57:22Z</time>
      </trkpt>
      <trkpt lat="44.8409" lon="1.19015">
        <ele>230.37</ele>
        <time>2017-02-12T09:57:28Z</time>
      </trkpt>
      <trkpt lat="44.84089" lon="1.19019">
        <ele>228.93</ele>
        <time>2017-02-12T09:57:31Z</time>
      </trkpt>
      <trkpt lat="44.84085" lon="1.19041">
        <ele>228.45</ele>
        <time>2017-02-12T09:57:44Z</time>
      </trkpt>
      <trkpt lat="44.84083" lon="1.19051">
        <ele>227.97</ele>
        <time>2017-02-12T09:57:50Z</time>
      </trkpt>
      <trkpt lat="44.84077" lon="1.19074">
        <ele>228.45</ele>
        <time>2017-02-12T09:58:04Z</time>
      </trkpt>
      <trkpt lat="44.84076" lon="1.19082">
        <ele>229.89</ele>
        <time>2017-02-12T09:58:10Z</time>
      </trkpt>
      <trkpt lat="44.84072" lon="1.191">
        <ele>229.89</ele>
        <time>2017-02-12T09:58:21Z</time>
      </trkpt>
      <trkpt lat="44.84065" lon="1.19124">
        <ele>230.37</ele>
        <time>2017-02-12T09:58:35Z</time>
      </trkpt>
      <trkpt lat="44.84057" lon="1.19153">
        <ele>231.33</ele>
        <time>2017-02-12T09:58:50Z</time>
      </trkpt>
      <trkpt lat="44.84055" lon="1.19185">
        <ele>233.74</ele>
        <time>2017-02-12T09:59:06Z</time>
      </trkpt>
      <trkpt lat="44.84051" lon="1.19214">
        <ele>235.18</ele>
        <time>2017-02-12T09:59:21Z</time>
      </trkpt>
      <trkpt lat="44.8405" lon="1.19245">
        <ele>236.62</ele>
        <time>2017-02-12T09:59:36Z</time>
      </trkpt>
      <trkpt lat="44.84052" lon="1.1927">
        <ele>238.06</ele>
        <time>2017-02-12T09:59:48Z</time>
      </trkpt>
      <trkpt lat="44.8405" lon="1.19304">
        <ele>241.43</ele>
        <time>2017-02-12T10:00:05Z</time>
      </trkpt>
      <trkpt lat="44.84049" lon="1.19329">
        <ele>242.39</ele>
        <time>2017-02-12T10:00:17Z</time>
      </trkpt>
      <trkpt lat="44.84051" lon="1.19356">
        <ele>244.79</ele>
        <time>2017-02-12T10:00:30Z</time>
      </trkpt>
      <trkpt lat="44.84053" lon="1.19382">
        <ele>248.16</ele>
        <time>2017-02-12T10:00:43Z</time>
      </trkpt>
      <trkpt lat="44.84054" lon="1.19401">
        <ele>247.2</ele>
        <time>2017-02-12T10:00:52Z</time>
      </trkpt>
      <trkpt lat="44.84055" lon="1.19426">
        <ele>249.6</ele>
        <time>2017-02-12T10:01:05Z</time>
      </trkpt>
      <trkpt lat="44.84049" lon="1.19454">
        <ele>250.56</ele>
        <time>2017-02-12T10:01:19Z</time>
      </trkpt>
      <trkpt lat="44.84048" lon="1.19461">
        <ele>251.04</ele>
        <time>2017-02-12T10:01:23Z</time>
      </trkpt>
      <trkpt lat="44.84043" lon="1.19473">
        <ele>251.52</ele>
        <time>2017-02-12T10:01:40Z</time>
      </trkpt>
      <trkpt lat="44.84043" lon="1.19478">
        <ele>250.08</ele>
        <time>2017-02-12T10:02:06Z</time>
      </trkpt>
      <trkpt lat="44.84039" lon="1.19489">
        <ele>251.52</ele>
        <time>2017-02-12T10:02:24Z</time>
      </trkpt>
      <trkpt lat="44.84033" lon="1.19501">
        <ele>252.96</ele>
        <time>2017-02-12T10:02:30Z</time>
      </trkpt>
      <trkpt lat="44.84026" lon="1.19521">
        <ele>252.96</ele>
        <time>2017-02-12T10:02:45Z</time>
      </trkpt>
      <trkpt lat="44.84021" lon="1.19536">
        <ele>252.96</ele>
        <time>2017-02-12T10:02:59Z</time>
      </trkpt>
      <trkpt lat="44.84016" lon="1.19555">
        <ele>252.96</ele>
        <time>2017-02-12T10:03:11Z</time>
      </trkpt>
      <trkpt lat="44.84009" lon="1.19576">
        <ele>252</ele>
        <time>2017-02-12T10:03:23Z</time>
      </trkpt>
      <trkpt lat="44.84003" lon="1.19602">
        <ele>250.08</ele>
        <time>2017-02-12T10:03:37Z</time>
      </trkpt>
      <trkpt lat="44.83997" lon="1.19636">
        <ele>249.12</ele>
        <time>2017-02-12T10:03:53Z</time>
      </trkpt>
      <trkpt lat="44.83994" lon="1.1966">
        <ele>247.68</ele>
        <time>2017-02-12T10:04:06Z</time>
      </trkpt>
      <trkpt lat="44.83993" lon="1.19668">
        <ele>247.2</ele>
        <time>2017-02-12T10:04:10Z</time>
      </trkpt>
      <trkpt lat="44.83994" lon="1.19678">
        <ele>247.2</ele>
        <time>2017-02-12T10:04:15Z</time>
      </trkpt>
      <trkpt lat="44.83997" lon="1.19711">
        <ele>244.31</ele>
        <time>2017-02-12T10:04:32Z</time>
      </trkpt>
      <trkpt lat="44.84003" lon="1.19737">
        <ele>243.35</ele>
        <time>2017-02-12T10:04:46Z</time>
      </trkpt>
      <trkpt lat="44.84007" lon="1.19763">
        <ele>241.43</ele>
        <time>2017-02-12T10:05:00Z</time>
      </trkpt>
      <trkpt lat="44.84009" lon="1.19787">
        <ele>240.95</ele>
        <time>2017-02-12T10:05:14Z</time>
      </trkpt>
      <trkpt lat="44.8401" lon="1.19791">
        <ele>240.95</ele>
        <time>2017-02-12T10:05:15Z</time>
      </trkpt>
      <trkpt lat="44.84011" lon="1.1981">
        <ele>241.43</ele>
        <time>2017-02-12T10:05:24Z</time>
      </trkpt>
      <trkpt lat="44.84011" lon="1.19822">
        <ele>239.99</ele>
        <time>2017-02-12T10:05:30Z</time>
      </trkpt>
      <trkpt lat="44.84009" lon="1.19851">
        <ele>239.51</ele>
        <time>2017-02-12T10:05:46Z</time>
      </trkpt>
      <trkpt lat="44.84009" lon="1.19889">
        <ele>240.95</ele>
        <time>2017-02-12T10:06:04Z</time>
      </trkpt>
      <trkpt lat="44.84008" lon="1.19919">
        <ele>240.95</ele>
        <time>2017-02-12T10:06:18Z</time>
      </trkpt>
      <trkpt lat="44.84007" lon="1.19948">
        <ele>243.83</ele>
        <time>2017-02-12T10:06:33Z</time>
      </trkpt>
      <trkpt lat="44.84005" lon="1.19966">
        <ele>243.83</ele>
        <time>2017-02-12T10:06:45Z</time>
      </trkpt>
      <trkpt lat="44.84005" lon="1.19971">
        <ele>245.75</ele>
        <time>2017-02-12T10:06:48Z</time>
      </trkpt>
      <trkpt lat="44.84005" lon="1.19984">
        <ele>244.31</ele>
        <time>2017-02-12T10:06:56Z</time>
      </trkpt>
      <trkpt lat="44.84008" lon="1.20012">
        <ele>242.39</ele>
        <time>2017-02-12T10:07:13Z</time>
      </trkpt>
      <trkpt lat="44.84011" lon="1.20047">
        <ele>241.91</ele>
        <time>2017-02-12T10:07:34Z</time>
      </trkpt>
      <trkpt lat="44.84012" lon="1.20061">
        <ele>239.51</ele>
        <time>2017-02-12T10:07:44Z</time>
      </trkpt>
      <trkpt lat="44.84012" lon="1.20084">
        <ele>236.62</ele>
        <time>2017-02-12T10:08:01Z</time>
      </trkpt>
      <trkpt lat="44.84014" lon="1.20106">
        <ele>234.7</ele>
        <time>2017-02-12T10:08:17Z</time>
      </trkpt>
      <trkpt lat="44.84017" lon="1.20117">
        <ele>233.74</ele>
        <time>2017-02-12T10:08:28Z</time>
      </trkpt>
      <trkpt lat="44.84018" lon="1.20143">
        <ele>230.37</ele>
        <time>2017-02-12T10:08:44Z</time>
      </trkpt>
      <trkpt lat="44.84015" lon="1.20151">
        <ele>230.37</ele>
        <time>2017-02-12T10:09:02Z</time>
      </trkpt>
      <trkpt lat="44.84009" lon="1.20156">
        <ele>230.37</ele>
        <time>2017-02-12T10:09:16Z</time>
      </trkpt>
      <trkpt lat="44.83998" lon="1.20153">
        <ele>229.89</ele>
        <time>2017-02-12T10:09:29Z</time>
      </trkpt>
      <trkpt lat="44.83995" lon="1.20153">
        <ele>229.89</ele>
        <time>2017-02-12T10:09:32Z</time>
      </trkpt>
      <trkpt lat="44.83992" lon="1.20154">
        <ele>229.89</ele>
        <time>2017-02-12T10:09:34Z</time>
      </trkpt>
      <trkpt lat="44.83977" lon="1.2016">
        <ele>227.97</ele>
        <time>2017-02-12T10:09:49Z</time>
      </trkpt>
      <trkpt lat="44.83962" lon="1.20163">
        <ele>225.57</ele>
        <time>2017-02-12T10:10:04Z</time>
      </trkpt>
      <trkpt lat="44.83954" lon="1.20171">
        <ele>222.2</ele>
        <time>2017-02-12T10:10:15Z</time>
      </trkpt>
      <trkpt lat="44.83953" lon="1.20172">
        <ele>221.72</ele>
        <time>2017-02-12T10:10:17Z</time>
      </trkpt>
      <trkpt lat="44.83939" lon="1.20181">
        <ele>219.32</ele>
        <time>2017-02-12T10:10:31Z</time>
      </trkpt>
      <trkpt lat="44.83925" lon="1.20187">
        <ele>216.91</ele>
        <time>2017-02-12T10:10:44Z</time>
      </trkpt>
      <trkpt lat="44.83906" lon="1.20191">
        <ele>213.55</ele>
        <time>2017-02-12T10:11:02Z</time>
      </trkpt>
      <trkpt lat="44.83892" lon="1.20198">
        <ele>210.19</ele>
        <time>2017-02-12T10:11:14Z</time>
      </trkpt>
      <trkpt lat="44.83874" lon="1.20205">
        <ele>208.26</ele>
        <time>2017-02-12T10:11:28Z</time>
      </trkpt>
      <trkpt lat="44.8386" lon="1.20211">
        <ele>205.86</ele>
        <time>2017-02-12T10:11:43Z</time>
      </trkpt>
      <trkpt lat="44.83847" lon="1.20218">
        <ele>203.46</ele>
        <time>2017-02-12T10:11:59Z</time>
      </trkpt>
      <trkpt lat="44.83843" lon="1.2022">
        <ele>202.01</ele>
        <time>2017-02-12T10:12:03Z</time>
      </trkpt>
      <trkpt lat="44.83828" lon="1.20232">
        <ele>199.61</ele>
        <time>2017-02-12T10:12:20Z</time>
      </trkpt>
      <trkpt lat="44.83811" lon="1.20239">
        <ele>197.21</ele>
        <time>2017-02-12T10:12:33Z</time>
      </trkpt>
      <trkpt lat="44.83801" lon="1.20242">
        <ele>194.32</ele>
        <time>2017-02-12T10:12:44Z</time>
      </trkpt>
      <trkpt lat="44.83784" lon="1.20247">
        <ele>190.48</ele>
        <time>2017-02-12T10:12:58Z</time>
      </trkpt>
      <trkpt lat="44.83768" lon="1.20253">
        <ele>190.48</ele>
        <time>2017-02-12T10:13:10Z</time>
      </trkpt>
      <trkpt lat="44.83758" lon="1.20259">
        <ele>187.11</ele>
        <time>2017-02-12T10:13:19Z</time>
      </trkpt>
      <trkpt lat="44.83739" lon="1.20269">
        <ele>186.15</ele>
        <time>2017-02-12T10:13:31Z</time>
      </trkpt>
      <trkpt lat="44.83727" lon="1.20275">
        <ele>184.23</ele>
        <time>2017-02-12T10:13:42Z</time>
      </trkpt>
      <trkpt lat="44.83711" lon="1.20284">
        <ele>182.79</ele>
        <time>2017-02-12T10:14:01Z</time>
      </trkpt>
      <trkpt lat="44.83698" lon="1.20292">
        <ele>180.87</ele>
        <time>2017-02-12T10:14:16Z</time>
      </trkpt>
      <trkpt lat="44.83693" lon="1.20299">
        <ele>180.38</ele>
        <time>2017-02-12T10:14:22Z</time>
      </trkpt>
      <trkpt lat="44.83678" lon="1.20312">
        <ele>180.38</ele>
        <time>2017-02-12T10:14:37Z</time>
      </trkpt>
      <trkpt lat="44.8367" lon="1.20323">
        <ele>177.5</ele>
        <time>2017-02-12T10:14:50Z</time>
      </trkpt>
      <trkpt lat="44.83657" lon="1.20338">
        <ele>176.06</ele>
        <time>2017-02-12T10:15:00Z</time>
      </trkpt>
      <trkpt lat="44.83638" lon="1.20348">
        <ele>174.14</ele>
        <time>2017-02-12T10:15:12Z</time>
      </trkpt>
      <trkpt lat="44.83626" lon="1.20363">
        <ele>172.69</ele>
        <time>2017-02-12T10:15:25Z</time>
      </trkpt>
      <trkpt lat="44.83618" lon="1.20383">
        <ele>170.29</ele>
        <time>2017-02-12T10:15:41Z</time>
      </trkpt>
      <trkpt lat="44.83608" lon="1.20394">
        <ele>168.85</ele>
        <time>2017-02-12T10:15:53Z</time>
      </trkpt>
      <trkpt lat="44.83605" lon="1.20396">
        <ele>167.41</ele>
        <time>2017-02-12T10:15:56Z</time>
      </trkpt>
      <trkpt lat="44.83595" lon="1.20407">
        <ele>166.45</ele>
        <time>2017-02-12T10:16:09Z</time>
      </trkpt>
      <trkpt lat="44.83591" lon="1.20413">
        <ele>165.96</ele>
        <time>2017-02-12T10:16:14Z</time>
      </trkpt>
      <trkpt lat="44.83581" lon="1.20423">
        <ele>165.48</ele>
        <time>2017-02-12T10:16:21Z</time>
      </trkpt>
      <trkpt lat="44.83569" lon="1.20442">
        <ele>162.6</ele>
        <time>2017-02-12T10:16:34Z</time>
      </trkpt>
      <trkpt lat="44.83556" lon="1.20454">
        <ele>161.64</ele>
        <time>2017-02-12T10:16:45Z</time>
      </trkpt>
      <trkpt lat="44.83555" lon="1.20456">
        <ele>161.64</ele>
        <time>2017-02-12T10:16:46Z</time>
      </trkpt>
      <trkpt lat="44.8354" lon="1.20473">
        <ele>160.68</ele>
        <time>2017-02-12T10:16:59Z</time>
      </trkpt>
      <trkpt lat="44.83537" lon="1.2048">
        <ele>159.72</ele>
        <time>2017-02-12T10:17:04Z</time>
      </trkpt>
      <trkpt lat="44.83527" lon="1.20504">
        <ele>158.27</ele>
        <time>2017-02-12T10:17:19Z</time>
      </trkpt>
      <trkpt lat="44.83516" lon="1.20523">
        <ele>156.35</ele>
        <time>2017-02-12T10:17:32Z</time>
      </trkpt>
      <trkpt lat="44.83512" lon="1.20533">
        <ele>155.87</ele>
        <time>2017-02-12T10:17:44Z</time>
      </trkpt>
      <trkpt lat="44.83507" lon="1.20545">
        <ele>156.83</ele>
        <time>2017-02-12T10:18:10Z</time>
      </trkpt>
      <trkpt lat="44.835" lon="1.20546">
        <ele>157.31</ele>
        <time>2017-02-12T10:18:29Z</time>
      </trkpt>
      <trkpt lat="44.83493" lon="1.20544">
        <ele>157.79</ele>
        <time>2017-02-12T10:18:52Z</time>
      </trkpt>
      <trkpt lat="44.83489" lon="1.20548">
        <ele>158.27</ele>
        <time>2017-02-12T10:19:09Z</time>
      </trkpt>
      <trkpt lat="44.83489" lon="1.20555">
        <ele>159.24</ele>
        <time>2017-02-12T10:19:30Z</time>
      </trkpt>
      <trkpt lat="44.8349" lon="1.20553">
        <ele>159.24</ele>
        <time>2017-02-12T10:20:00Z</time>
      </trkpt>
      <trkpt lat="44.83494" lon="1.20557">
        <ele>159.24</ele>
        <time>2017-02-12T10:20:31Z</time>
      </trkpt>
      <trkpt lat="44.83491" lon="1.2056">
        <ele>159.24</ele>
        <time>2017-02-12T10:20:52Z</time>
      </trkpt>
      <trkpt lat="44.83491" lon="1.20562">
        <ele>159.24</ele>
        <time>2017-02-12T10:21:14Z</time>
      </trkpt>
      <trkpt lat="44.83492" lon="1.2056">
        <ele>159.24</ele>
        <time>2017-02-12T10:21:35Z</time>
      </trkpt>
      <trkpt lat="44.83492" lon="1.20556">
        <ele>159.24</ele>
        <time>2017-02-12T10:21:58Z</time>
      </trkpt>
      <trkpt lat="44.83496" lon="1.20556">
        <ele>159.24</ele>
        <time>2017-02-12T10:22:19Z</time>
      </trkpt>
      <trkpt lat="44.83498" lon="1.20555">
        <ele>157.31</ele>
        <time>2017-02-12T10:22:33Z</time>
      </trkpt>
      <trkpt lat="44.83492" lon="1.20557">
        <ele>156.35</ele>
        <time>2017-02-12T10:22:46Z</time>
      </trkpt>
      <trkpt lat="44.83484" lon="1.20558">
        <ele>155.39</ele>
        <time>2017-02-12T10:22:59Z</time>
      </trkpt>
      <trkpt lat="44.83475" lon="1.20559">
        <ele>154.91</ele>
        <time>2017-02-12T10:23:14Z</time>
      </trkpt>
      <trkpt lat="44.83461" lon="1.20558">
        <ele>153.47</ele>
        <time>2017-02-12T10:23:32Z</time>
      </trkpt>
      <trkpt lat="44.83448" lon="1.20556">
        <ele>152.03</ele>
        <time>2017-02-12T10:23:46Z</time>
      </trkpt>
      <trkpt lat="44.83434" lon="1.20557">
        <ele>151.54</ele>
        <time>2017-02-12T10:24:00Z</time>
      </trkpt>
      <trkpt lat="44.83422" lon="1.20556">
        <ele>152.03</ele>
        <time>2017-02-12T10:24:12Z</time>
      </trkpt>
      <trkpt lat="44.8342" lon="1.20555">
        <ele>152.03</ele>
        <time>2017-02-12T10:24:16Z</time>
      </trkpt>
      <trkpt lat="44.83417" lon="1.20554">
        <ele>152.03</ele>
        <time>2017-02-12T10:24:18Z</time>
      </trkpt>
      <trkpt lat="44.83412" lon="1.20555">
        <ele>150.58</ele>
        <time>2017-02-12T10:24:24Z</time>
      </trkpt>
      <trkpt lat="44.83396" lon="1.20554">
        <ele>149.14</ele>
        <time>2017-02-12T10:24:37Z</time>
      </trkpt>
      <trkpt lat="44.83392" lon="1.20553">
        <ele>150.58</ele>
        <time>2017-02-12T10:24:40Z</time>
      </trkpt>
      <trkpt lat="44.83375" lon="1.20551">
        <ele>151.54</ele>
        <time>2017-02-12T10:24:52Z</time>
      </trkpt>
      <trkpt lat="44.83361" lon="1.20549">
        <ele>149.14</ele>
        <time>2017-02-12T10:25:03Z</time>
      </trkpt>
      <trkpt lat="44.83346" lon="1.20543">
        <ele>148.18</ele>
        <time>2017-02-12T10:25:15Z</time>
      </trkpt>
      <trkpt lat="44.83335" lon="1.20533">
        <ele>148.18</ele>
        <time>2017-02-12T10:25:26Z</time>
      </trkpt>
      <trkpt lat="44.83328" lon="1.20528">
        <ele>147.7</ele>
        <time>2017-02-12T10:25:31Z</time>
      </trkpt>
      <trkpt lat="44.83314" lon="1.20513">
        <ele>147.22</ele>
        <time>2017-02-12T10:25:42Z</time>
      </trkpt>
      <trkpt lat="44.83305" lon="1.20505">
        <ele>147.22</ele>
        <time>2017-02-12T10:25:48Z</time>
      </trkpt>
      <trkpt lat="44.83294" lon="1.20487">
        <ele>146.26</ele>
        <time>2017-02-12T10:26:00Z</time>
      </trkpt>
      <trkpt lat="44.83284" lon="1.20473">
        <ele>146.26</ele>
        <time>2017-02-12T10:26:13Z</time>
      </trkpt>
      <trkpt lat="44.83282" lon="1.20461">
        <ele>145.78</ele>
        <time>2017-02-12T10:26:31Z</time>
      </trkpt>
      <trkpt lat="44.83281" lon="1.20459">
        <ele>145.78</ele>
        <time>2017-02-12T10:26:33Z</time>
      </trkpt>
      <trkpt lat="44.83275" lon="1.20443">
        <ele>145.3</ele>
        <time>2017-02-12T10:26:43Z</time>
      </trkpt>
      <trkpt lat="44.83262" lon="1.2044">
        <ele>144.82</ele>
        <time>2017-02-12T10:26:57Z</time>
      </trkpt>
      <trkpt lat="44.83251" lon="1.2044">
        <ele>144.82</ele>
        <time>2017-02-12T10:27:08Z</time>
      </trkpt>
      <trkpt lat="44.83246" lon="1.2044">
        <ele>144.82</ele>
        <time>2017-02-12T10:27:13Z</time>
      </trkpt>
      <trkpt lat="44.83229" lon="1.20436">
        <ele>144.34</ele>
        <time>2017-02-12T10:27:27Z</time>
      </trkpt>
      <trkpt lat="44.83215" lon="1.20436">
        <ele>142.89</ele>
        <time>2017-02-12T10:27:39Z</time>
      </trkpt>
      <trkpt lat="44.83202" lon="1.20439">
        <ele>141.45</ele>
        <time>2017-02-12T10:27:52Z</time>
      </trkpt>
      <trkpt lat="44.83192" lon="1.20442">
        <ele>141.45</ele>
        <time>2017-02-12T10:28:03Z</time>
      </trkpt>
      <trkpt lat="44.8317" lon="1.20445">
        <ele>141.45</ele>
        <time>2017-02-12T10:28:15Z</time>
      </trkpt>
      <trkpt lat="44.83152" lon="1.20449">
        <ele>140.01</ele>
        <time>2017-02-12T10:28:27Z</time>
      </trkpt>
      <trkpt lat="44.83138" lon="1.20449">
        <ele>138.57</ele>
        <time>2017-02-12T10:28:40Z</time>
      </trkpt>
      <trkpt lat="44.83123" lon="1.20447">
        <ele>138.09</ele>
        <time>2017-02-12T10:28:53Z</time>
      </trkpt>
      <trkpt lat="44.8312" lon="1.20447">
        <ele>139.53</ele>
        <time>2017-02-12T10:28:55Z</time>
      </trkpt>
      <trkpt lat="44.83113" lon="1.20446">
        <ele>136.16</ele>
        <time>2017-02-12T10:29:03Z</time>
      </trkpt>
      <trkpt lat="44.83103" lon="1.20442">
        <ele>135.68</ele>
        <time>2017-02-12T10:29:11Z</time>
      </trkpt>
      <trkpt lat="44.83084" lon="1.20442">
        <ele>137.13</ele>
        <time>2017-02-12T10:29:25Z</time>
      </trkpt>
      <trkpt lat="44.83059" lon="1.20443">
        <ele>137.61</ele>
        <time>2017-02-12T10:29:39Z</time>
      </trkpt>
      <trkpt lat="44.83045" lon="1.20443">
        <ele>135.68</ele>
        <time>2017-02-12T10:29:48Z</time>
      </trkpt>
      <trkpt lat="44.83034" lon="1.20445">
        <ele>135.68</ele>
        <time>2017-02-12T10:29:54Z</time>
      </trkpt>
      <trkpt lat="44.83021" lon="1.20453">
        <ele>135.68</ele>
        <time>2017-02-12T10:30:02Z</time>
      </trkpt>
      <trkpt lat="44.83019" lon="1.20456">
        <ele>135.68</ele>
        <time>2017-02-12T10:30:04Z</time>
      </trkpt>
      <trkpt lat="44.82996" lon="1.20474">
        <ele>135.2</ele>
        <time>2017-02-12T10:30:20Z</time>
      </trkpt>
      <trkpt lat="44.82989" lon="1.20484">
        <ele>134.72</ele>
        <time>2017-02-12T10:30:27Z</time>
      </trkpt>
      <trkpt lat="44.82984" lon="1.20492">
        <ele>134.72</ele>
        <time>2017-02-12T10:30:32Z</time>
      </trkpt>
      <trkpt lat="44.82978" lon="1.20498">
        <ele>135.2</ele>
        <time>2017-02-12T10:30:36Z</time>
      </trkpt>
      <trkpt lat="44.82964" lon="1.20515">
        <ele>134.72</ele>
        <time>2017-02-12T10:30:47Z</time>
      </trkpt>
      <trkpt lat="44.82952" lon="1.20519">
        <ele>134.72</ele>
        <time>2017-02-12T10:30:54Z</time>
      </trkpt>
      <trkpt lat="44.82945" lon="1.20522">
        <ele>134.72</ele>
        <time>2017-02-12T10:30:59Z</time>
      </trkpt>
      <trkpt lat="44.82936" lon="1.20523">
        <ele>134.72</ele>
        <time>2017-02-12T10:31:16Z</time>
      </trkpt>
      <trkpt lat="44.82928" lon="1.20523">
        <ele>136.64</ele>
        <time>2017-02-12T10:31:31Z</time>
      </trkpt>
      <trkpt lat="44.82925" lon="1.20523">
        <ele>135.2</ele>
        <time>2017-02-12T10:31:48Z</time>
      </trkpt>
      <trkpt lat="44.82922" lon="1.20519">
        <ele>136.16</ele>
        <time>2017-02-12T10:31:53Z</time>
      </trkpt>
      <trkpt lat="44.82913" lon="1.20511">
        <ele>138.57</ele>
        <time>2017-02-12T10:32:05Z</time>
      </trkpt>
      <trkpt lat="44.82901" lon="1.20503">
        <ele>140.49</ele>
        <time>2017-02-12T10:32:18Z</time>
      </trkpt>
      <trkpt lat="44.82887" lon="1.20488">
        <ele>143.37</ele>
        <time>2017-02-12T10:32:33Z</time>
      </trkpt>
      <trkpt lat="44.82875" lon="1.20473">
        <ele>144.34</ele>
        <time>2017-02-12T10:32:47Z</time>
      </trkpt>
      <trkpt lat="44.82871" lon="1.2046">
        <ele>147.22</ele>
        <time>2017-02-12T10:32:59Z</time>
      </trkpt>
      <trkpt lat="44.82875" lon="1.20458">
        <ele>149.62</ele>
        <time>2017-02-12T10:33:13Z</time>
      </trkpt>
      <trkpt lat="44.82886" lon="1.20462">
        <ele>151.06</ele>
        <time>2017-02-12T10:33:28Z</time>
      </trkpt>
      <trkpt lat="44.82902" lon="1.20471">
        <ele>152.51</ele>
        <time>2017-02-12T10:33:42Z</time>
      </trkpt>
      <trkpt lat="44.82914" lon="1.20474">
        <ele>153.95</ele>
        <time>2017-02-12T10:33:52Z</time>
      </trkpt>
      <trkpt lat="44.82933" lon="1.20468">
        <ele>155.87</ele>
        <time>2017-02-12T10:34:07Z</time>
      </trkpt>
      <trkpt lat="44.82947" lon="1.20454">
        <ele>158.27</ele>
        <time>2017-02-12T10:34:22Z</time>
      </trkpt>
      <trkpt lat="44.82958" lon="1.20434">
        <ele>160.68</ele>
        <time>2017-02-12T10:34:36Z</time>
      </trkpt>
      <trkpt lat="44.8296" lon="1.20421">
        <ele>161.64</ele>
        <time>2017-02-12T10:34:49Z</time>
      </trkpt>
      <trkpt lat="44.82961" lon="1.204">
        <ele>163.56</ele>
        <time>2017-02-12T10:35:03Z</time>
      </trkpt>
      <trkpt lat="44.82963" lon="1.20384">
        <ele>165</ele>
        <time>2017-02-12T10:35:17Z</time>
      </trkpt>
      <trkpt lat="44.8297" lon="1.20367">
        <ele>166.93</ele>
        <time>2017-02-12T10:35:32Z</time>
      </trkpt>
      <trkpt lat="44.82977" lon="1.20353">
        <ele>169.33</ele>
        <time>2017-02-12T10:35:46Z</time>
      </trkpt>
      <trkpt lat="44.82984" lon="1.20341">
        <ele>171.73</ele>
        <time>2017-02-12T10:35:59Z</time>
      </trkpt>
      <trkpt lat="44.82996" lon="1.20328">
        <ele>173.66</ele>
        <time>2017-02-12T10:36:11Z</time>
      </trkpt>
      <trkpt lat="44.83008" lon="1.20318">
        <ele>175.58</ele>
        <time>2017-02-12T10:36:23Z</time>
      </trkpt>
      <trkpt lat="44.8301" lon="1.20316">
        <ele>176.06</ele>
        <time>2017-02-12T10:36:25Z</time>
      </trkpt>
      <trkpt lat="44.83023" lon="1.20304">
        <ele>177.98</ele>
        <time>2017-02-12T10:36:37Z</time>
      </trkpt>
      <trkpt lat="44.83038" lon="1.2029">
        <ele>179.9</ele>
        <time>2017-02-12T10:36:49Z</time>
      </trkpt>
      <trkpt lat="44.83047" lon="1.20279">
        <ele>181.83</ele>
        <time>2017-02-12T10:36:57Z</time>
      </trkpt>
      <trkpt lat="44.83055" lon="1.20267">
        <ele>183.75</ele>
        <time>2017-02-12T10:37:09Z</time>
      </trkpt>
      <trkpt lat="44.83056" lon="1.20267">
        <ele>184.23</ele>
        <time>2017-02-12T10:37:12Z</time>
      </trkpt>
      <trkpt lat="44.83061" lon="1.20254">
        <ele>186.15</ele>
        <time>2017-02-12T10:37:25Z</time>
      </trkpt>
      <trkpt lat="44.83059" lon="1.20249">
        <ele>186.63</ele>
        <time>2017-02-12T10:37:30Z</time>
      </trkpt>
      <trkpt lat="44.83062" lon="1.20231">
        <ele>187.59</ele>
        <time>2017-02-12T10:37:40Z</time>
      </trkpt>
      <trkpt lat="44.83062" lon="1.2023">
        <ele>187.59</ele>
        <time>2017-02-12T10:37:41Z</time>
      </trkpt>
      <trkpt lat="44.83059" lon="1.2022">
        <ele>189.52</ele>
        <time>2017-02-12T10:37:52Z</time>
      </trkpt>
      <trkpt lat="44.83066" lon="1.20191">
        <ele>190.96</ele>
        <time>2017-02-12T10:37:59Z</time>
      </trkpt>
      <trkpt lat="44.83053" lon="1.20187">
        <ele>193.36</ele>
        <time>2017-02-12T10:38:13Z</time>
      </trkpt>
      <trkpt lat="44.83052" lon="1.20188">
        <ele>193.84</ele>
        <time>2017-02-12T10:38:14Z</time>
      </trkpt>
      <trkpt lat="44.83033" lon="1.20194">
        <ele>195.77</ele>
        <time>2017-02-12T10:38:30Z</time>
      </trkpt>
      <trkpt lat="44.83015" lon="1.20204">
        <ele>197.69</ele>
        <time>2017-02-12T10:38:44Z</time>
      </trkpt>
      <trkpt lat="44.83009" lon="1.20208">
        <ele>198.65</ele>
        <time>2017-02-12T10:38:49Z</time>
      </trkpt>
      <trkpt lat="44.82998" lon="1.20216">
        <ele>200.57</ele>
        <time>2017-02-12T10:38:58Z</time>
      </trkpt>
      <trkpt lat="44.82994" lon="1.20218">
        <ele>201.05</ele>
        <time>2017-02-12T10:39:01Z</time>
      </trkpt>
      <trkpt lat="44.82974" lon="1.20231">
        <ele>202.01</ele>
        <time>2017-02-12T10:39:17Z</time>
      </trkpt>
      <trkpt lat="44.82958" lon="1.20246">
        <ele>202.49</ele>
        <time>2017-02-12T10:39:31Z</time>
      </trkpt>
      <trkpt lat="44.8294" lon="1.2025">
        <ele>201.53</ele>
        <time>2017-02-12T10:39:45Z</time>
      </trkpt>
      <trkpt lat="44.82936" lon="1.20249">
        <ele>203.46</ele>
        <time>2017-02-12T10:39:48Z</time>
      </trkpt>
      <trkpt lat="44.82935" lon="1.20249">
        <ele>203.46</ele>
        <time>2017-02-12T10:39:49Z</time>
      </trkpt>
      <trkpt lat="44.82932" lon="1.20246">
        <ele>203.46</ele>
        <time>2017-02-12T10:39:52Z</time>
      </trkpt>
      <trkpt lat="44.82924" lon="1.20235">
        <ele>205.86</ele>
        <time>2017-02-12T10:40:06Z</time>
      </trkpt>
      <trkpt lat="44.82919" lon="1.20216">
        <ele>207.78</ele>
        <time>2017-02-12T10:40:19Z</time>
      </trkpt>
      <trkpt lat="44.82919" lon="1.20194">
        <ele>208.74</ele>
        <time>2017-02-12T10:40:32Z</time>
      </trkpt>
      <trkpt lat="44.8292" lon="1.20188">
        <ele>210.19</ele>
        <time>2017-02-12T10:40:35Z</time>
      </trkpt>
      <trkpt lat="44.82923" lon="1.20179">
        <ele>210.19</ele>
        <time>2017-02-12T10:40:41Z</time>
      </trkpt>
      <trkpt lat="44.82926" lon="1.20166">
        <ele>210.19</ele>
        <time>2017-02-12T10:40:48Z</time>
      </trkpt>
      <trkpt lat="44.82926" lon="1.20164">
        <ele>210.19</ele>
        <time>2017-02-12T10:40:49Z</time>
      </trkpt>
      <trkpt lat="44.82937" lon="1.20142">
        <ele>213.07</ele>
        <time>2017-02-12T10:41:03Z</time>
      </trkpt>
      <trkpt lat="44.82948" lon="1.20123">
        <ele>214.03</ele>
        <time>2017-02-12T10:41:21Z</time>
      </trkpt>
      <trkpt lat="44.8296" lon="1.20109">
        <ele>214.99</ele>
        <time>2017-02-12T10:41:40Z</time>
      </trkpt>
      <trkpt lat="44.82969" lon="1.20105">
        <ele>216.91</ele>
        <time>2017-02-12T10:41:55Z</time>
      </trkpt>
      <trkpt lat="44.82968" lon="1.20105">
        <ele>216.43</ele>
        <time>2017-02-12T10:42:21Z</time>
      </trkpt>
      <trkpt lat="44.8297" lon="1.20104">
        <ele>217.4</ele>
        <time>2017-02-12T10:42:39Z</time>
      </trkpt>
      <trkpt lat="44.8297" lon="1.20104">
        <ele>216.43</ele>
        <time>2017-02-12T10:42:45Z</time>
      </trkpt>
      <trkpt lat="44.82976" lon="1.20106">
        <ele>215.47</ele>
        <time>2017-02-12T10:42:58Z</time>
      </trkpt>
      <trkpt lat="44.82974" lon="1.20107">
        <ele>216.43</ele>
        <time>2017-02-12T10:43:24Z</time>
      </trkpt>
      <trkpt lat="44.82974" lon="1.20107">
        <ele>214.99</ele>
        <time>2017-02-12T10:43:29Z</time>
      </trkpt>
      <trkpt lat="44.82979" lon="1.20102">
        <ele>216.43</ele>
        <time>2017-02-12T10:43:46Z</time>
      </trkpt>
      <trkpt lat="44.8298" lon="1.20102">
        <ele>216.43</ele>
        <time>2017-02-12T10:43:47Z</time>
      </trkpt>
      <trkpt lat="44.82982" lon="1.201">
        <ele>216.43</ele>
        <time>2017-02-12T10:43:50Z</time>
      </trkpt>
      <trkpt lat="44.8299" lon="1.20096">
        <ele>217.4</ele>
        <time>2017-02-12T10:43:59Z</time>
      </trkpt>
      <trkpt lat="44.83003" lon="1.20088">
        <ele>219.32</ele>
        <time>2017-02-12T10:44:12Z</time>
      </trkpt>
      <trkpt lat="44.83014" lon="1.20079">
        <ele>221.24</ele>
        <time>2017-02-12T10:44:25Z</time>
      </trkpt>
      <trkpt lat="44.83015" lon="1.20079">
        <ele>221.24</ele>
        <time>2017-02-12T10:44:26Z</time>
      </trkpt>
      <trkpt lat="44.83029" lon="1.20069">
        <ele>221.72</ele>
        <time>2017-02-12T10:44:41Z</time>
      </trkpt>
      <trkpt lat="44.83044" lon="1.20064">
        <ele>221.72</ele>
        <time>2017-02-12T10:44:55Z</time>
      </trkpt>
      <trkpt lat="44.83055" lon="1.20065">
        <ele>222.2</ele>
        <time>2017-02-12T10:45:08Z</time>
      </trkpt>
      <trkpt lat="44.83069" lon="1.20065">
        <ele>223.16</ele>
        <time>2017-02-12T10:45:24Z</time>
      </trkpt>
      <trkpt lat="44.83082" lon="1.20067">
        <ele>224.12</ele>
        <time>2017-02-12T10:45:39Z</time>
      </trkpt>
      <trkpt lat="44.83101" lon="1.20059">
        <ele>224.12</ele>
        <time>2017-02-12T10:45:53Z</time>
      </trkpt>
      <trkpt lat="44.83119" lon="1.2005">
        <ele>224.12</ele>
        <time>2017-02-12T10:46:07Z</time>
      </trkpt>
      <trkpt lat="44.83147" lon="1.20034">
        <ele>226.53</ele>
        <time>2017-02-12T10:46:26Z</time>
      </trkpt>
      <trkpt lat="44.83164" lon="1.20024">
        <ele>227.97</ele>
        <time>2017-02-12T10:46:41Z</time>
      </trkpt>
      <trkpt lat="44.83173" lon="1.2002">
        <ele>229.89</ele>
        <time>2017-02-12T10:46:48Z</time>
      </trkpt>
      <trkpt lat="44.83186" lon="1.2001">
        <ele>231.33</ele>
        <time>2017-02-12T10:47:02Z</time>
      </trkpt>
      <trkpt lat="44.83201" lon="1.20001">
        <ele>232.3</ele>
        <time>2017-02-12T10:47:16Z</time>
      </trkpt>
      <trkpt lat="44.83213" lon="1.19988">
        <ele>233.74</ele>
        <time>2017-02-12T10:47:30Z</time>
      </trkpt>
      <trkpt lat="44.83219" lon="1.19979">
        <ele>237.1</ele>
        <time>2017-02-12T10:47:37Z</time>
      </trkpt>
      <trkpt lat="44.83233" lon="1.19959">
        <ele>234.7</ele>
        <time>2017-02-12T10:47:53Z</time>
      </trkpt>
      <trkpt lat="44.83238" lon="1.19953">
        <ele>236.14</ele>
        <time>2017-02-12T10:48:01Z</time>
      </trkpt>
      <trkpt lat="44.83246" lon="1.19944">
        <ele>236.62</ele>
        <time>2017-02-12T10:48:18Z</time>
      </trkpt>
      <trkpt lat="44.83254" lon="1.19931">
        <ele>236.14</ele>
        <time>2017-02-12T10:48:47Z</time>
      </trkpt>
      <trkpt lat="44.83255" lon="1.19922">
        <ele>234.22</ele>
        <time>2017-02-12T10:49:05Z</time>
      </trkpt>
      <trkpt lat="44.83255" lon="1.19922">
        <ele>237.58</ele>
        <time>2017-02-12T10:49:11Z</time>
      </trkpt>
      <trkpt lat="44.83259" lon="1.19923">
        <ele>234.7</ele>
        <time>2017-02-12T10:49:36Z</time>
      </trkpt>
      <trkpt lat="44.83261" lon="1.19925">
        <ele>234.22</ele>
        <time>2017-02-12T10:49:54Z</time>
      </trkpt>
      <trkpt lat="44.83259" lon="1.19919">
        <ele>235.66</ele>
        <time>2017-02-12T10:50:07Z</time>
      </trkpt>
      <trkpt lat="44.8326" lon="1.19909">
        <ele>236.62</ele>
        <time>2017-02-12T10:50:20Z</time>
      </trkpt>
      <trkpt lat="44.83264" lon="1.19895">
        <ele>235.66</ele>
        <time>2017-02-12T10:50:33Z</time>
      </trkpt>
      <trkpt lat="44.83266" lon="1.19891">
        <ele>235.66</ele>
        <time>2017-02-12T10:50:36Z</time>
      </trkpt>
      <trkpt lat="44.83271" lon="1.19871">
        <ele>235.66</ele>
        <time>2017-02-12T10:50:50Z</time>
      </trkpt>
      <trkpt lat="44.83281" lon="1.19851">
        <ele>235.66</ele>
        <time>2017-02-12T10:51:02Z</time>
      </trkpt>
      <trkpt lat="44.83288" lon="1.19828">
        <ele>235.18</ele>
        <time>2017-02-12T10:51:16Z</time>
      </trkpt>
      <trkpt lat="44.83291" lon="1.1982">
        <ele>235.66</ele>
        <time>2017-02-12T10:51:22Z</time>
      </trkpt>
      <trkpt lat="44.83295" lon="1.19804">
        <ele>235.66</ele>
        <time>2017-02-12T10:51:30Z</time>
      </trkpt>
      <trkpt lat="44.83297" lon="1.198">
        <ele>235.66</ele>
        <time>2017-02-12T10:51:32Z</time>
      </trkpt>
      <trkpt lat="44.83301" lon="1.19782">
        <ele>237.1</ele>
        <time>2017-02-12T10:51:43Z</time>
      </trkpt>
      <trkpt lat="44.83309" lon="1.19758">
        <ele>238.54</ele>
        <time>2017-02-12T10:51:58Z</time>
      </trkpt>
      <trkpt lat="44.83313" lon="1.19745">
        <ele>239.02</ele>
        <time>2017-02-12T10:52:04Z</time>
      </trkpt>
      <trkpt lat="44.83314" lon="1.19742">
        <ele>239.02</ele>
        <time>2017-02-12T10:52:06Z</time>
      </trkpt>
      <trkpt lat="44.83319" lon="1.19719">
        <ele>240.47</ele>
        <time>2017-02-12T10:52:18Z</time>
      </trkpt>
      <trkpt lat="44.83321" lon="1.19706">
        <ele>240.95</ele>
        <time>2017-02-12T10:52:27Z</time>
      </trkpt>
      <trkpt lat="44.83321" lon="1.19703">
        <ele>240.95</ele>
        <time>2017-02-12T10:52:29Z</time>
      </trkpt>
      <trkpt lat="44.8333" lon="1.19663">
        <ele>242.87</ele>
        <time>2017-02-12T10:52:47Z</time>
      </trkpt>
      <trkpt lat="44.8334" lon="1.19643">
        <ele>243.83</ele>
        <time>2017-02-12T10:52:59Z</time>
      </trkpt>
      <trkpt lat="44.83353" lon="1.19622">
        <ele>244.31</ele>
        <time>2017-02-12T10:53:14Z</time>
      </trkpt>
      <trkpt lat="44.83368" lon="1.19605">
        <ele>244.79</ele>
        <time>2017-02-12T10:53:27Z</time>
      </trkpt>
      <trkpt lat="44.83389" lon="1.19587">
        <ele>246.72</ele>
        <time>2017-02-12T10:53:44Z</time>
      </trkpt>
      <trkpt lat="44.83404" lon="1.19565">
        <ele>247.68</ele>
        <time>2017-02-12T10:54:00Z</time>
      </trkpt>
      <trkpt lat="44.83406" lon="1.19561">
        <ele>247.68</ele>
        <time>2017-02-12T10:54:04Z</time>
      </trkpt>
      <trkpt lat="44.83413" lon="1.1955">
        <ele>248.64</ele>
        <time>2017-02-12T10:54:11Z</time>
      </trkpt>
      <trkpt lat="44.83415" lon="1.19546">
        <ele>248.64</ele>
        <time>2017-02-12T10:54:14Z</time>
      </trkpt>
      <trkpt lat="44.83426" lon="1.19525">
        <ele>248.64</ele>
        <time>2017-02-12T10:54:26Z</time>
      </trkpt>
      <trkpt lat="44.83432" lon="1.19504">
        <ele>249.12</ele>
        <time>2017-02-12T10:54:38Z</time>
      </trkpt>
      <trkpt lat="44.83441" lon="1.19483">
        <ele>250.08</ele>
        <time>2017-02-12T10:54:53Z</time>
      </trkpt>
      <trkpt lat="44.83444" lon="1.19475">
        <ele>249.12</ele>
        <time>2017-02-12T10:54:58Z</time>
      </trkpt>
      <trkpt lat="44.8345" lon="1.19456">
        <ele>250.08</ele>
        <time>2017-02-12T10:55:08Z</time>
      </trkpt>
      <trkpt lat="44.83458" lon="1.19431">
        <ele>250.56</ele>
        <time>2017-02-12T10:55:20Z</time>
      </trkpt>
      <trkpt lat="44.83464" lon="1.19411">
        <ele>251.04</ele>
        <time>2017-02-12T10:55:32Z</time>
      </trkpt>
      <trkpt lat="44.83476" lon="1.19371">
        <ele>251.04</ele>
        <time>2017-02-12T10:55:50Z</time>
      </trkpt>
      <trkpt lat="44.83488" lon="1.19331">
        <ele>251.04</ele>
        <time>2017-02-12T10:56:06Z</time>
      </trkpt>
      <trkpt lat="44.83498" lon="1.19296">
        <ele>250.56</ele>
        <time>2017-02-12T10:56:24Z</time>
      </trkpt>
      <trkpt lat="44.835" lon="1.19293">
        <ele>250.56</ele>
        <time>2017-02-12T10:56:26Z</time>
      </trkpt>
      <trkpt lat="44.83494" lon="1.19279">
        <ele>249.12</ele>
        <time>2017-02-12T10:56:36Z</time>
      </trkpt>
      <trkpt lat="44.83477" lon="1.19258">
        <ele>247.2</ele>
        <time>2017-02-12T10:56:53Z</time>
      </trkpt>
      <trkpt lat="44.83462" lon="1.19236">
        <ele>246.72</ele>
        <time>2017-02-12T10:57:08Z</time>
      </trkpt>
      <trkpt lat="44.83451" lon="1.19215">
        <ele>250.56</ele>
        <time>2017-02-12T10:57:22Z</time>
      </trkpt>
      <trkpt lat="44.83449" lon="1.19211">
        <ele>247.2</ele>
        <time>2017-02-12T10:57:24Z</time>
      </trkpt>
      <trkpt lat="44.83448" lon="1.19209">
        <ele>247.2</ele>
        <time>2017-02-12T10:57:25Z</time>
      </trkpt>
      <trkpt lat="44.83431" lon="1.19187">
        <ele>244.79</ele>
        <time>2017-02-12T10:57:42Z</time>
      </trkpt>
      <trkpt lat="44.83428" lon="1.19183">
        <ele>242.87</ele>
        <time>2017-02-12T10:57:45Z</time>
      </trkpt>
      <trkpt lat="44.83411" lon="1.19163">
        <ele>242.87</ele>
        <time>2017-02-12T10:57:59Z</time>
      </trkpt>
      <trkpt lat="44.83399" lon="1.19156">
        <ele>241.91</ele>
        <time>2017-02-12T10:58:07Z</time>
      </trkpt>
      <trkpt lat="44.83397" lon="1.19152">
        <ele>242.87</ele>
        <time>2017-02-12T10:58:09Z</time>
      </trkpt>
      <trkpt lat="44.83392" lon="1.19145">
        <ele>241.43</ele>
        <time>2017-02-12T10:58:13Z</time>
      </trkpt>
      <trkpt lat="44.83383" lon="1.19137">
        <ele>242.87</ele>
        <time>2017-02-12T10:58:20Z</time>
      </trkpt>
      <trkpt lat="44.83363" lon="1.19111">
        <ele>242.39</ele>
        <time>2017-02-12T10:58:38Z</time>
      </trkpt>
      <trkpt lat="44.83342" lon="1.19096">
        <ele>240.47</ele>
        <time>2017-02-12T10:58:54Z</time>
      </trkpt>
      <trkpt lat="44.83317" lon="1.19083">
        <ele>240.47</ele>
        <time>2017-02-12T10:59:12Z</time>
      </trkpt>
      <trkpt lat="44.83301" lon="1.19073">
        <ele>239.99</ele>
        <time>2017-02-12T10:59:24Z</time>
      </trkpt>
      <trkpt lat="44.83279" lon="1.1906">
        <ele>241.43</ele>
        <time>2017-02-12T10:59:40Z</time>
      </trkpt>
      <trkpt lat="44.83264" lon="1.19052">
        <ele>239.51</ele>
        <time>2017-02-12T10:59:50Z</time>
      </trkpt>
      <trkpt lat="44.83259" lon="1.19047">
        <ele>240.47</ele>
        <time>2017-02-12T10:59:55Z</time>
      </trkpt>
      <trkpt lat="44.83239" lon="1.19039">
        <ele>239.51</ele>
        <time>2017-02-12T11:00:10Z</time>
      </trkpt>
      <trkpt lat="44.83217" lon="1.19027">
        <ele>239.02</ele>
        <time>2017-02-12T11:00:26Z</time>
      </trkpt>
      <trkpt lat="44.83194" lon="1.19014">
        <ele>240.95</ele>
        <time>2017-02-12T11:00:43Z</time>
      </trkpt>
      <trkpt lat="44.83193" lon="1.19013">
        <ele>240.95</ele>
        <time>2017-02-12T11:00:44Z</time>
      </trkpt>
      <trkpt lat="44.83187" lon="1.19011">
        <ele>239.51</ele>
        <time>2017-02-12T11:00:48Z</time>
      </trkpt>
      <trkpt lat="44.83167" lon="1.19004">
        <ele>239.99</ele>
        <time>2017-02-12T11:01:02Z</time>
      </trkpt>
      <trkpt lat="44.83154" lon="1.18999">
        <ele>239.02</ele>
        <time>2017-02-12T11:01:12Z</time>
      </trkpt>
      <trkpt lat="44.8315" lon="1.18997">
        <ele>240.47</ele>
        <time>2017-02-12T11:01:15Z</time>
      </trkpt>
      <trkpt lat="44.83143" lon="1.18992">
        <ele>239.02</ele>
        <time>2017-02-12T11:01:23Z</time>
      </trkpt>
      <trkpt lat="44.83141" lon="1.18991">
        <ele>240.47</ele>
        <time>2017-02-12T11:01:25Z</time>
      </trkpt>
      <trkpt lat="44.83124" lon="1.18987">
        <ele>239.99</ele>
        <time>2017-02-12T11:01:38Z</time>
      </trkpt>
      <trkpt lat="44.83101" lon="1.18982">
        <ele>239.99</ele>
        <time>2017-02-12T11:01:55Z</time>
      </trkpt>
      <trkpt lat="44.83076" lon="1.18976">
        <ele>238.54</ele>
        <time>2017-02-12T11:02:11Z</time>
      </trkpt>
      <trkpt lat="44.8305" lon="1.18972">
        <ele>236.14</ele>
        <time>2017-02-12T11:02:29Z</time>
      </trkpt>
      <trkpt lat="44.83033" lon="1.18973">
        <ele>233.26</ele>
        <time>2017-02-12T11:02:41Z</time>
      </trkpt>
      <trkpt lat="44.8302" lon="1.18979">
        <ele>232.3</ele>
        <time>2017-02-12T11:02:52Z</time>
      </trkpt>
      <trkpt lat="44.82999" lon="1.18985">
        <ele>229.89</ele>
        <time>2017-02-12T11:03:07Z</time>
      </trkpt>
      <trkpt lat="44.8299" lon="1.18988">
        <ele>227.49</ele>
        <time>2017-02-12T11:03:13Z</time>
      </trkpt>
      <trkpt lat="44.82968" lon="1.19003">
        <ele>225.09</ele>
        <time>2017-02-12T11:03:30Z</time>
      </trkpt>
      <trkpt lat="44.82948" lon="1.19009">
        <ele>221.72</ele>
        <time>2017-02-12T11:03:44Z</time>
      </trkpt>
      <trkpt lat="44.82931" lon="1.19011">
        <ele>218.36</ele>
        <time>2017-02-12T11:03:56Z</time>
      </trkpt>
      <trkpt lat="44.82925" lon="1.19012">
        <ele>217.4</ele>
        <time>2017-02-12T11:04:02Z</time>
      </trkpt>
      <trkpt lat="44.82921" lon="1.19012">
        <ele>215.95</ele>
        <time>2017-02-12T11:04:06Z</time>
      </trkpt>
      <trkpt lat="44.8291" lon="1.1901">
        <ele>213.07</ele>
        <time>2017-02-12T11:04:17Z</time>
      </trkpt>
      <trkpt lat="44.82897" lon="1.19004">
        <ele>209.7</ele>
        <time>2017-02-12T11:04:28Z</time>
      </trkpt>
      <trkpt lat="44.82881" lon="1.19004">
        <ele>206.34</ele>
        <time>2017-02-12T11:04:41Z</time>
      </trkpt>
      <trkpt lat="44.82863" lon="1.19005">
        <ele>202.98</ele>
        <time>2017-02-12T11:04:54Z</time>
      </trkpt>
      <trkpt lat="44.82849" lon="1.19006">
        <ele>200.09</ele>
        <time>2017-02-12T11:05:05Z</time>
      </trkpt>
      <trkpt lat="44.82833" lon="1.19007">
        <ele>196.73</ele>
        <time>2017-02-12T11:05:18Z</time>
      </trkpt>
      <trkpt lat="44.82817" lon="1.19009">
        <ele>193.84</ele>
        <time>2017-02-12T11:05:31Z</time>
      </trkpt>
      <trkpt lat="44.82798" lon="1.19009">
        <ele>190.48</ele>
        <time>2017-02-12T11:05:45Z</time>
      </trkpt>
      <trkpt lat="44.82788" lon="1.19005">
        <ele>186.63</ele>
        <time>2017-02-12T11:05:57Z</time>
      </trkpt>
      <trkpt lat="44.82785" lon="1.19">
        <ele>183.27</ele>
        <time>2017-02-12T11:06:05Z</time>
      </trkpt>
      <trkpt lat="44.82785" lon="1.18998">
        <ele>182.79</ele>
        <time>2017-02-12T11:06:07Z</time>
      </trkpt>
      <trkpt lat="44.82774" lon="1.18994">
        <ele>179.9</ele>
        <time>2017-02-12T11:06:22Z</time>
      </trkpt>
      <trkpt lat="44.82773" lon="1.18995">
        <ele>181.83</ele>
        <time>2017-02-12T11:06:27Z</time>
      </trkpt>
      <trkpt lat="44.82763" lon="1.18998">
        <ele>181.83</ele>
        <time>2017-02-12T11:06:41Z</time>
      </trkpt>
      <trkpt lat="44.82761" lon="1.18998">
        <ele>179.9</ele>
        <time>2017-02-12T11:06:43Z</time>
      </trkpt>
      <trkpt lat="44.82753" lon="1.18996">
        <ele>178.46</ele>
        <time>2017-02-12T11:06:57Z</time>
      </trkpt>
      <trkpt lat="44.82748" lon="1.18993">
        <ele>178.94</ele>
        <time>2017-02-12T11:07:19Z</time>
      </trkpt>
      <trkpt lat="44.82748" lon="1.18994">
        <ele>178.94</ele>
        <time>2017-02-12T11:07:20Z</time>
      </trkpt>
      <trkpt lat="44.82747" lon="1.18994">
        <ele>178.46</ele>
        <time>2017-02-12T11:07:42Z</time>
      </trkpt>
      <trkpt lat="44.82744" lon="1.18992">
        <ele>178.46</ele>
        <time>2017-02-12T11:08:05Z</time>
      </trkpt>
      <trkpt lat="44.82741" lon="1.18995">
        <ele>177.98</ele>
        <time>2017-02-12T11:08:30Z</time>
      </trkpt>
      <trkpt lat="44.82741" lon="1.18993">
        <ele>177.98</ele>
        <time>2017-02-12T11:08:50Z</time>
      </trkpt>
      <trkpt lat="44.8274" lon="1.18997">
        <ele>177.98</ele>
        <time>2017-02-12T11:09:10Z</time>
      </trkpt>
      <trkpt lat="44.82742" lon="1.18999">
        <ele>177.98</ele>
        <time>2017-02-12T11:09:34Z</time>
      </trkpt>
      <trkpt lat="44.82741" lon="1.19001">
        <ele>177.5</ele>
        <time>2017-02-12T11:09:56Z</time>
      </trkpt>
      <trkpt lat="44.82738" lon="1.19003">
        <ele>176.06</ele>
        <time>2017-02-12T11:10:24Z</time>
      </trkpt>
      <trkpt lat="44.82733" lon="1.19">
        <ele>174.62</ele>
        <time>2017-02-12T11:10:38Z</time>
      </trkpt>
      <trkpt lat="44.8273" lon="1.19">
        <ele>173.66</ele>
        <time>2017-02-12T11:10:44Z</time>
      </trkpt>
      <trkpt lat="44.82721" lon="1.19002">
        <ele>171.25</ele>
        <time>2017-02-12T11:10:55Z</time>
      </trkpt>
      <trkpt lat="44.82707" lon="1.19005">
        <ele>168.37</ele>
        <time>2017-02-12T11:11:09Z</time>
      </trkpt>
      <trkpt lat="44.82705" lon="1.19005">
        <ele>168.37</ele>
        <time>2017-02-12T11:11:10Z</time>
      </trkpt>
      <trkpt lat="44.82704" lon="1.19005">
        <ele>167.89</ele>
        <time>2017-02-12T11:11:11Z</time>
      </trkpt>
      <trkpt lat="44.82686" lon="1.19005">
        <ele>164.52</ele>
        <time>2017-02-12T11:11:26Z</time>
      </trkpt>
      <trkpt lat="44.82672" lon="1.19005">
        <ele>161.16</ele>
        <time>2017-02-12T11:11:38Z</time>
      </trkpt>
      <trkpt lat="44.82668" lon="1.19006">
        <ele>159.72</ele>
        <time>2017-02-12T11:11:42Z</time>
      </trkpt>
      <trkpt lat="44.82658" lon="1.19008">
        <ele>156.35</ele>
        <time>2017-02-12T11:11:54Z</time>
      </trkpt>
      <trkpt lat="44.82644" lon="1.19007">
        <ele>154.91</ele>
        <time>2017-02-12T11:12:10Z</time>
      </trkpt>
      <trkpt lat="44.82634" lon="1.19003">
        <ele>151.54</ele>
        <time>2017-02-12T11:12:22Z</time>
      </trkpt>
      <trkpt lat="44.82624" lon="1.19">
        <ele>150.1</ele>
        <time>2017-02-12T11:12:35Z</time>
      </trkpt>
      <trkpt lat="44.82622" lon="1.18993">
        <ele>146.74</ele>
        <time>2017-02-12T11:12:46Z</time>
      </trkpt>
      <trkpt lat="44.82622" lon="1.1899">
        <ele>145.78</ele>
        <time>2017-02-12T11:12:48Z</time>
      </trkpt>
      <trkpt lat="44.82621" lon="1.1898">
        <ele>142.89</ele>
        <time>2017-02-12T11:12:57Z</time>
      </trkpt>
      <trkpt lat="44.82621" lon="1.18972">
        <ele>142.41</ele>
        <time>2017-02-12T11:13:02Z</time>
      </trkpt>
      <trkpt lat="44.82621" lon="1.18967">
        <ele>142.41</ele>
        <time>2017-02-12T11:13:05Z</time>
      </trkpt>
      <trkpt lat="44.82621" lon="1.1896">
        <ele>141.93</ele>
        <time>2017-02-12T11:13:10Z</time>
      </trkpt>
      <trkpt lat="44.82621" lon="1.18959">
        <ele>141.45</ele>
        <time>2017-02-12T11:13:11Z</time>
      </trkpt>
      <trkpt lat="44.8262" lon="1.18959">
        <ele>141.45</ele>
        <time>2017-02-12T11:13:12Z</time>
      </trkpt>
      <trkpt lat="44.82612" lon="1.18964">
        <ele>141.93</ele>
        <time>2017-02-12T11:13:25Z</time>
      </trkpt>
      <trkpt lat="44.82599" lon="1.18966">
        <ele>142.89</ele>
        <time>2017-02-12T11:13:37Z</time>
      </trkpt>
      <trkpt lat="44.8259" lon="1.18967">
        <ele>142.89</ele>
        <time>2017-02-12T11:13:45Z</time>
      </trkpt>
      <trkpt lat="44.82574" lon="1.1896">
        <ele>141.93</ele>
        <time>2017-02-12T11:13:57Z</time>
      </trkpt>
      <trkpt lat="44.82571" lon="1.18958">
        <ele>141.45</ele>
        <time>2017-02-12T11:13:59Z</time>
      </trkpt>
      <trkpt lat="44.82559" lon="1.18953">
        <ele>141.93</ele>
        <time>2017-02-12T11:14:07Z</time>
      </trkpt>
      <trkpt lat="44.82557" lon="1.1895">
        <ele>141.93</ele>
        <time>2017-02-12T11:14:09Z</time>
      </trkpt>
      <trkpt lat="44.82553" lon="1.18947">
        <ele>143.37</ele>
        <time>2017-02-12T11:14:11Z</time>
      </trkpt>
      <trkpt lat="44.82551" lon="1.18944">
        <ele>144.34</ele>
        <time>2017-02-12T11:14:14Z</time>
      </trkpt>
      <trkpt lat="44.82533" lon="1.18935">
        <ele>141.45</ele>
        <time>2017-02-12T11:14:29Z</time>
      </trkpt>
      <trkpt lat="44.82524" lon="1.18921">
        <ele>137.13</ele>
        <time>2017-02-12T11:14:39Z</time>
      </trkpt>
      <trkpt lat="44.82521" lon="1.18917">
        <ele>133.76</ele>
        <time>2017-02-12T11:14:43Z</time>
      </trkpt>
      <trkpt lat="44.82513" lon="1.1891">
        <ele>131.84</ele>
        <time>2017-02-12T11:14:53Z</time>
      </trkpt>
      <trkpt lat="44.82509" lon="1.18907">
        <ele>132.8</ele>
        <time>2017-02-12T11:14:58Z</time>
      </trkpt>
      <trkpt lat="44.825" lon="1.18894">
        <ele>133.76</ele>
        <time>2017-02-12T11:15:12Z</time>
      </trkpt>
      <trkpt lat="44.82499" lon="1.18892">
        <ele>133.76</ele>
        <time>2017-02-12T11:15:13Z</time>
      </trkpt>
      <trkpt lat="44.82494" lon="1.18872">
        <ele>132.32</ele>
        <time>2017-02-12T11:15:23Z</time>
      </trkpt>
      <trkpt lat="44.82492" lon="1.18846">
        <ele>131.84</ele>
        <time>2017-02-12T11:15:40Z</time>
      </trkpt>
      <trkpt lat="44.82494" lon="1.18839">
        <ele>131.84</ele>
        <time>2017-02-12T11:15:44Z</time>
      </trkpt>
      <trkpt lat="44.82493" lon="1.18833">
        <ele>131.84</ele>
        <time>2017-02-12T11:15:47Z</time>
      </trkpt>
      <trkpt lat="44.82494" lon="1.18819">
        <ele>129.92</ele>
        <time>2017-02-12T11:15:53Z</time>
      </trkpt>
      <trkpt lat="44.82496" lon="1.18812">
        <ele>128.47</ele>
        <time>2017-02-12T11:15:56Z</time>
      </trkpt>
      <trkpt lat="44.82496" lon="1.18806">
        <ele>127.99</ele>
        <time>2017-02-12T11:15:59Z</time>
      </trkpt>
      <trkpt lat="44.82498" lon="1.18777">
        <ele>126.07</ele>
        <time>2017-02-12T11:16:16Z</time>
      </trkpt>
      <trkpt lat="44.82496" lon="1.18756">
        <ele>123.67</ele>
        <time>2017-02-12T11:16:31Z</time>
      </trkpt>
      <trkpt lat="44.82501" lon="1.18747">
        <ele>123.19</ele>
        <time>2017-02-12T11:16:38Z</time>
      </trkpt>
      <trkpt lat="44.82504" lon="1.18737">
        <ele>123.19</ele>
        <time>2017-02-12T11:16:45Z</time>
      </trkpt>
      <trkpt lat="44.82509" lon="1.18713">
        <ele>123.19</ele>
        <time>2017-02-12T11:16:59Z</time>
      </trkpt>
      <trkpt lat="44.82514" lon="1.18691">
        <ele>124.63</ele>
        <time>2017-02-12T11:17:11Z</time>
      </trkpt>
      <trkpt lat="44.8252" lon="1.18662">
        <ele>125.59</ele>
        <time>2017-02-12T11:17:26Z</time>
      </trkpt>
      <trkpt lat="44.82524" lon="1.18644">
        <ele>126.07</ele>
        <time>2017-02-12T11:17:36Z</time>
      </trkpt>
      <trkpt lat="44.82527" lon="1.18633">
        <ele>125.59</ele>
        <time>2017-02-12T11:17:43Z</time>
      </trkpt>
      <trkpt lat="44.82535" lon="1.1861">
        <ele>128.47</ele>
        <time>2017-02-12T11:17:57Z</time>
      </trkpt>
      <trkpt lat="44.82537" lon="1.18584">
        <ele>129.92</ele>
        <time>2017-02-12T11:18:14Z</time>
      </trkpt>
      <trkpt lat="44.82538" lon="1.18576">
        <ele>129.92</ele>
        <time>2017-02-12T11:18:19Z</time>
      </trkpt>
      <trkpt lat="44.82541" lon="1.1857">
        <ele>129.92</ele>
        <time>2017-02-12T11:18:23Z</time>
      </trkpt>
      <trkpt lat="44.82543" lon="1.18565">
        <ele>128.95</ele>
        <time>2017-02-12T11:18:27Z</time>
      </trkpt>
      <trkpt lat="44.82545" lon="1.18557">
        <ele>127.99</ele>
        <time>2017-02-12T11:18:32Z</time>
      </trkpt>
      <trkpt lat="44.82546" lon="1.18533">
        <ele>127.99</ele>
        <time>2017-02-12T11:18:47Z</time>
      </trkpt>
      <trkpt lat="44.82546" lon="1.18532">
        <ele>127.99</ele>
        <time>2017-02-12T11:18:48Z</time>
      </trkpt>
      <trkpt lat="44.82546" lon="1.18521">
        <ele>127.51</ele>
        <time>2017-02-12T11:18:54Z</time>
      </trkpt>
      <trkpt lat="44.82546" lon="1.18513">
        <ele>126.07</ele>
        <time>2017-02-12T11:18:59Z</time>
      </trkpt>
      <trkpt lat="44.82545" lon="1.18501">
        <ele>124.63</ele>
        <time>2017-02-12T11:19:06Z</time>
      </trkpt>
      <trkpt lat="44.82548" lon="1.18483">
        <ele>122.71</ele>
        <time>2017-02-12T11:19:14Z</time>
      </trkpt>
      <trkpt lat="44.82549" lon="1.18481">
        <ele>122.71</ele>
        <time>2017-02-12T11:19:15Z</time>
      </trkpt>
      <trkpt lat="44.82549" lon="1.18469">
        <ele>124.15</ele>
        <time>2017-02-12T11:19:22Z</time>
      </trkpt>
      <trkpt lat="44.82548" lon="1.18467">
        <ele>124.15</ele>
        <time>2017-02-12T11:19:23Z</time>
      </trkpt>
      <trkpt lat="44.82552" lon="1.18443">
        <ele>125.11</ele>
        <time>2017-02-12T11:19:40Z</time>
      </trkpt>
      <trkpt lat="44.82553" lon="1.1844">
        <ele>125.59</ele>
        <time>2017-02-12T11:19:48Z</time>
      </trkpt>
      <trkpt lat="44.82552" lon="1.18434">
        <ele>125.59</ele>
        <time>2017-02-12T11:19:51Z</time>
      </trkpt>
      <trkpt lat="44.82544" lon="1.18429">
        <ele>125.59</ele>
        <time>2017-02-12T11:19:58Z</time>
      </trkpt>
      <trkpt lat="44.82544" lon="1.18421">
        <ele>124.15</ele>
        <time>2017-02-12T11:20:03Z</time>
      </trkpt>
      <trkpt lat="44.82545" lon="1.18412">
        <ele>124.15</ele>
        <time>2017-02-12T11:20:07Z</time>
      </trkpt>
      <trkpt lat="44.82557" lon="1.18383">
        <ele>123.67</ele>
        <time>2017-02-12T11:20:21Z</time>
      </trkpt>
      <trkpt lat="44.82569" lon="1.18357">
        <ele>123.19</ele>
        <time>2017-02-12T11:20:38Z</time>
      </trkpt>
      <trkpt lat="44.82574" lon="1.18353">
        <ele>123.19</ele>
        <time>2017-02-12T11:20:49Z</time>
      </trkpt>
      <trkpt lat="44.82583" lon="1.18339">
        <ele>125.59</ele>
        <time>2017-02-12T11:20:59Z</time>
      </trkpt>
      <trkpt lat="44.82594" lon="1.18333">
        <ele>122.71</ele>
        <time>2017-02-12T11:21:06Z</time>
      </trkpt>
      <trkpt lat="44.82599" lon="1.18314">
        <ele>119.82</ele>
        <time>2017-02-12T11:21:20Z</time>
      </trkpt>
      <trkpt lat="44.826" lon="1.18313">
        <ele>119.82</ele>
        <time>2017-02-12T11:21:21Z</time>
      </trkpt>
      <trkpt lat="44.82608" lon="1.183">
        <ele>116.46</ele>
        <time>2017-02-12T11:21:32Z</time>
      </trkpt>
      <trkpt lat="44.82608" lon="1.18298">
        <ele>116.46</ele>
        <time>2017-02-12T11:21:33Z</time>
      </trkpt>
      <trkpt lat="44.82613" lon="1.18279">
        <ele>112.61</ele>
        <time>2017-02-12T11:21:46Z</time>
      </trkpt>
      <trkpt lat="44.82611" lon="1.18267">
        <ele>109.73</ele>
        <time>2017-02-12T11:22:02Z</time>
      </trkpt>
      <trkpt lat="44.82606" lon="1.18265">
        <ele>109.73</ele>
        <time>2017-02-12T11:22:22Z</time>
      </trkpt>
      <trkpt lat="44.82605" lon="1.18263">
        <ele>111.65</ele>
        <time>2017-02-12T11:22:36Z</time>
      </trkpt>
      <trkpt lat="44.82605" lon="1.18264">
        <ele>108.77</ele>
        <time>2017-02-12T11:23:01Z</time>
      </trkpt>
      <trkpt lat="44.82604" lon="1.18265">
        <ele>108.77</ele>
        <time>2017-02-12T11:23:15Z</time>
      </trkpt>
      <trkpt lat="44.82604" lon="1.18264">
        <ele>106.36</ele>
        <time>2017-02-12T11:23:24Z</time>
      </trkpt>
      <trkpt lat="44.82605" lon="1.18263">
        <ele>107.81</ele>
        <time>2017-02-12T11:23:27Z</time>
      </trkpt>
      <trkpt lat="44.82603" lon="1.18266">
        <ele>109.25</ele>
        <time>2017-02-12T11:23:47Z</time>
      </trkpt>
      <trkpt lat="44.82604" lon="1.18264">
        <ele>109.25</ele>
        <time>2017-02-12T11:24:06Z</time>
      </trkpt>
      <trkpt lat="44.82607" lon="1.18264">
        <ele>109.25</ele>
        <time>2017-02-12T11:24:34Z</time>
      </trkpt>
      <trkpt lat="44.82607" lon="1.18263">
        <ele>109.25</ele>
        <time>2017-02-12T11:24:55Z</time>
      </trkpt>
      <trkpt lat="44.82607" lon="1.18262">
        <ele>108.29</ele>
        <time>2017-02-12T11:25:05Z</time>
      </trkpt>
      <trkpt lat="44.82609" lon="1.18262">
        <ele>109.73</ele>
        <time>2017-02-12T11:25:22Z</time>
      </trkpt>
      <trkpt lat="44.8261" lon="1.18262">
        <ele>108.29</ele>
        <time>2017-02-12T11:25:31Z</time>
      </trkpt>
      <trkpt lat="44.82607" lon="1.18262">
        <ele>109.25</ele>
        <time>2017-02-12T11:25:55Z</time>
      </trkpt>
      <trkpt lat="44.82608" lon="1.18262">
        <ele>108.77</ele>
        <time>2017-02-12T11:26:24Z</time>
      </trkpt>
      <trkpt lat="44.82608" lon="1.18263">
        <ele>108.29</ele>
        <time>2017-02-12T11:26:36Z</time>
      </trkpt>
      <trkpt lat="44.826" lon="1.1827">
        <ele>106.36</ele>
        <time>2017-02-12T11:26:53Z</time>
      </trkpt>
      <trkpt lat="44.82594" lon="1.18278">
        <ele>104.92</ele>
        <time>2017-02-12T11:27:03Z</time>
      </trkpt>
      <trkpt lat="44.82587" lon="1.18288">
        <ele>104.44</ele>
        <time>2017-02-12T11:27:10Z</time>
      </trkpt>
      <trkpt lat="44.82576" lon="1.18317">
        <ele>101.56</ele>
        <time>2017-02-12T11:27:30Z</time>
      </trkpt>
      <trkpt lat="44.82575" lon="1.1832">
        <ele>101.56</ele>
        <time>2017-02-12T11:27:32Z</time>
      </trkpt>
      <trkpt lat="44.82567" lon="1.18341">
        <ele>102.52</ele>
        <time>2017-02-12T11:27:47Z</time>
      </trkpt>
      <trkpt lat="44.82564" lon="1.18363">
        <ele>103.96</ele>
        <time>2017-02-12T11:28:03Z</time>
      </trkpt>
      <trkpt lat="44.82557" lon="1.1838">
        <ele>102.52</ele>
        <time>2017-02-12T11:28:16Z</time>
      </trkpt>
      <trkpt lat="44.82556" lon="1.18381">
        <ele>102.52</ele>
        <time>2017-02-12T11:28:17Z</time>
      </trkpt>
      <trkpt lat="44.82547" lon="1.18417">
        <ele>101.56</ele>
        <time>2017-02-12T11:28:33Z</time>
      </trkpt>
      <trkpt lat="44.82544" lon="1.18425">
        <ele>101.08</ele>
        <time>2017-02-12T11:28:37Z</time>
      </trkpt>
      <trkpt lat="44.82541" lon="1.18438">
        <ele>99.15</ele>
        <time>2017-02-12T11:28:53Z</time>
      </trkpt>
      <trkpt lat="44.82539" lon="1.18437">
        <ele>97.71</ele>
        <time>2017-02-12T11:29:03Z</time>
      </trkpt>
      <trkpt lat="44.82538" lon="1.18436">
        <ele>94.83</ele>
        <time>2017-02-12T11:29:19Z</time>
      </trkpt>
      <trkpt lat="44.82537" lon="1.18435">
        <ele>94.35</ele>
        <time>2017-02-12T11:29:25Z</time>
      </trkpt>
      <trkpt lat="44.82536" lon="1.18441">
        <ele>93.87</ele>
        <time>2017-02-12T11:29:30Z</time>
      </trkpt>
      <trkpt lat="44.82528" lon="1.18455">
        <ele>92.9</ele>
        <time>2017-02-12T11:29:42Z</time>
      </trkpt>
      <trkpt lat="44.82526" lon="1.1846">
        <ele>92.42</ele>
        <time>2017-02-12T11:29:46Z</time>
      </trkpt>
      <trkpt lat="44.8252" lon="1.18482">
        <ele>91.46</ele>
        <time>2017-02-12T11:30:02Z</time>
      </trkpt>
      <trkpt lat="44.8252" lon="1.18485">
        <ele>90.98</ele>
        <time>2017-02-12T11:30:04Z</time>
      </trkpt>
      <trkpt lat="44.8251" lon="1.18514">
        <ele>89.54</ele>
        <time>2017-02-12T11:30:18Z</time>
      </trkpt>
      <trkpt lat="44.82509" lon="1.18515">
        <ele>89.54</ele>
        <time>2017-02-12T11:30:19Z</time>
      </trkpt>
      <trkpt lat="44.82494" lon="1.18531">
        <ele>86.18</ele>
        <time>2017-02-12T11:30:34Z</time>
      </trkpt>
      <trkpt lat="44.82492" lon="1.18532">
        <ele>85.69</ele>
        <time>2017-02-12T11:30:36Z</time>
      </trkpt>
      <trkpt lat="44.82483" lon="1.18558">
        <ele>85.69</ele>
        <time>2017-02-12T11:30:52Z</time>
      </trkpt>
      <trkpt lat="44.82477" lon="1.18568">
        <ele>86.18</ele>
        <time>2017-02-12T11:31:04Z</time>
      </trkpt>
      <trkpt lat="44.82468" lon="1.18573">
        <ele>86.66</ele>
        <time>2017-02-12T11:31:17Z</time>
      </trkpt>
      <trkpt lat="44.82465" lon="1.18573">
        <ele>86.66</ele>
        <time>2017-02-12T11:31:44Z</time>
      </trkpt>
      <trkpt lat="44.82465" lon="1.18575">
        <ele>86.66</ele>
        <time>2017-02-12T11:31:55Z</time>
      </trkpt>
      <trkpt lat="44.82467" lon="1.18577">
        <ele>86.18</ele>
        <time>2017-02-12T11:32:12Z</time>
      </trkpt>
      <trkpt lat="44.82464" lon="1.18572">
        <ele>87.62</ele>
        <time>2017-02-12T11:32:38Z</time>
      </trkpt>
      <trkpt lat="44.82464" lon="1.18574">
        <ele>87.62</ele>
        <time>2017-02-12T11:32:53Z</time>
      </trkpt>
      <trkpt lat="44.82464" lon="1.18575">
        <ele>86.18</ele>
        <time>2017-02-12T11:32:56Z</time>
      </trkpt>
      <trkpt lat="44.82465" lon="1.18573">
        <ele>86.66</ele>
        <time>2017-02-12T11:33:31Z</time>
      </trkpt>
    </trkseg>
  </trk>
</gpx>